<?xml version="1.0" encoding="UTF-8" standalone="no" ?>
<gpx xmlns="http://www.topografix.com/GPX/1/1" xmlns:xsi="http://www.w3.org/2001/XMLSchema-instance" xsi:schemaLocation="http://www.topografix.com/GPX/1/1 http://www.topografix.com/GPX/1/1/gpx.xsd" version="1.1" creator="VisuGPX - https://www.visugpx.com">
  <metadata>
    <name> Sigonce-Revest-saint-Martin</name>
  </metadata>
  <trk>
    <name><![CDATA[05/01/2019 10:00:55 sigonce-revest saint martin]]></name>
    <extensions>
      <line xmlns="http://www.topografix.com/GPX/gpx_style/0/2">
        <color>0000FF</color>
        <width>4</width>
      </line>
    </extensions>
    <trkseg>
      <trkpt lat="43.99693" lon="5.84071">
        <ele>554.79998779297</ele>
        <time>2019-01-05T09:00:55Z</time>
      </trkpt>
      <trkpt lat="43.99693" lon="5.84071">
        <ele>534.40002441406</ele>
        <time>2019-01-05T09:00:56Z</time>
      </trkpt>
      <trkpt lat="43.99693" lon="5.8407">
        <ele>517.59997558594</ele>
        <time>2019-01-05T09:00:57Z</time>
      </trkpt>
      <trkpt lat="43.99693" lon="5.8407">
        <ele>509.20001220703</ele>
        <time>2019-01-05T09:00:58Z</time>
      </trkpt>
      <trkpt lat="43.99693" lon="5.8407">
        <ele>504.79998779297</ele>
        <time>2019-01-05T09:00:59Z</time>
      </trkpt>
      <trkpt lat="43.99693" lon="5.8407">
        <ele>501.60000610352</ele>
        <time>2019-01-05T09:01:01Z</time>
      </trkpt>
      <trkpt lat="43.99694" lon="5.8407">
        <ele>500.20001220703</ele>
        <time>2019-01-05T09:01:42Z</time>
      </trkpt>
      <trkpt lat="43.99698" lon="5.84071">
        <ele>500</ele>
        <time>2019-01-05T09:02:14Z</time>
      </trkpt>
      <trkpt lat="43.99695" lon="5.84074">
        <ele>500</ele>
        <time>2019-01-05T09:02:51Z</time>
      </trkpt>
      <trkpt lat="43.99694" lon="5.84072">
        <ele>500</ele>
        <time>2019-01-05T09:03:35Z</time>
      </trkpt>
      <trkpt lat="43.99695" lon="5.84072">
        <ele>500</ele>
        <time>2019-01-05T09:04:05Z</time>
      </trkpt>
      <trkpt lat="43.99698" lon="5.84074">
        <ele>500</ele>
        <time>2019-01-05T09:04:51Z</time>
      </trkpt>
      <trkpt lat="43.99698" lon="5.84074">
        <ele>500.20001220703</ele>
        <time>2019-01-05T09:05:33Z</time>
      </trkpt>
      <trkpt lat="43.99706" lon="5.84077">
        <ele>500.39999389648</ele>
        <time>2019-01-05T09:06:19Z</time>
      </trkpt>
      <trkpt lat="43.99721" lon="5.84072">
        <ele>500.39999389648</ele>
        <time>2019-01-05T09:06:35Z</time>
      </trkpt>
      <trkpt lat="43.99724" lon="5.84072">
        <ele>500.39999389648</ele>
        <time>2019-01-05T09:06:38Z</time>
      </trkpt>
      <trkpt lat="43.9973" lon="5.84072">
        <ele>500.60000610352</ele>
        <time>2019-01-05T09:06:47Z</time>
      </trkpt>
      <trkpt lat="43.99735" lon="5.84072">
        <ele>500.60000610352</ele>
        <time>2019-01-05T09:06:52Z</time>
      </trkpt>
      <trkpt lat="43.99743" lon="5.84071">
        <ele>500.60000610352</ele>
        <time>2019-01-05T09:07:00Z</time>
      </trkpt>
      <trkpt lat="43.99769" lon="5.84069">
        <ele>500.79998779297</ele>
        <time>2019-01-05T09:07:26Z</time>
      </trkpt>
      <trkpt lat="43.99799" lon="5.84066">
        <ele>501.20001220703</ele>
        <time>2019-01-05T09:07:50Z</time>
      </trkpt>
      <trkpt lat="43.99816" lon="5.84065">
        <ele>502</ele>
        <time>2019-01-05T09:08:05Z</time>
      </trkpt>
      <trkpt lat="43.99833" lon="5.84062">
        <ele>502.60000610352</ele>
        <time>2019-01-05T09:08:21Z</time>
      </trkpt>
      <trkpt lat="43.99837" lon="5.84062">
        <ele>502.79998779297</ele>
        <time>2019-01-05T09:08:25Z</time>
      </trkpt>
      <trkpt lat="43.99855" lon="5.84062">
        <ele>503.39999389648</ele>
        <time>2019-01-05T09:08:40Z</time>
      </trkpt>
      <trkpt lat="43.99878" lon="5.84065">
        <ele>504.20001220703</ele>
        <time>2019-01-05T09:08:58Z</time>
      </trkpt>
      <trkpt lat="43.99896" lon="5.8407">
        <ele>504.79998779297</ele>
        <time>2019-01-05T09:09:16Z</time>
      </trkpt>
      <trkpt lat="43.99914" lon="5.84073">
        <ele>505.20001220703</ele>
        <time>2019-01-05T09:09:31Z</time>
      </trkpt>
      <trkpt lat="43.99931" lon="5.84078">
        <ele>506</ele>
        <time>2019-01-05T09:09:47Z</time>
      </trkpt>
      <trkpt lat="43.9995" lon="5.84075">
        <ele>507</ele>
        <time>2019-01-05T09:10:06Z</time>
      </trkpt>
      <trkpt lat="43.99959" lon="5.84068">
        <ele>508</ele>
        <time>2019-01-05T09:10:18Z</time>
      </trkpt>
      <trkpt lat="43.99975" lon="5.8406">
        <ele>509.39999389648</ele>
        <time>2019-01-05T09:10:32Z</time>
      </trkpt>
      <trkpt lat="43.99995" lon="5.84052">
        <ele>511</ele>
        <time>2019-01-05T09:10:49Z</time>
      </trkpt>
      <trkpt lat="44.0001" lon="5.84048">
        <ele>511.79998779297</ele>
        <time>2019-01-05T09:11:04Z</time>
      </trkpt>
      <trkpt lat="44.00031" lon="5.84046">
        <ele>512.40002441406</ele>
        <time>2019-01-05T09:11:23Z</time>
      </trkpt>
      <trkpt lat="44.00048" lon="5.84046">
        <ele>512.79998779297</ele>
        <time>2019-01-05T09:11:38Z</time>
      </trkpt>
      <trkpt lat="44.00064" lon="5.84047">
        <ele>513</ele>
        <time>2019-01-05T09:11:53Z</time>
      </trkpt>
      <trkpt lat="44.00071" lon="5.84047">
        <ele>513</ele>
        <time>2019-01-05T09:12:00Z</time>
      </trkpt>
      <trkpt lat="44.00095" lon="5.84044">
        <ele>514.20001220703</ele>
        <time>2019-01-05T09:12:21Z</time>
      </trkpt>
      <trkpt lat="44.00116" lon="5.84044">
        <ele>514.79998779297</ele>
        <time>2019-01-05T09:12:40Z</time>
      </trkpt>
      <trkpt lat="44.00135" lon="5.84042">
        <ele>515.59997558594</ele>
        <time>2019-01-05T09:12:58Z</time>
      </trkpt>
      <trkpt lat="44.00152" lon="5.84037">
        <ele>516.20001220703</ele>
        <time>2019-01-05T09:13:16Z</time>
      </trkpt>
      <trkpt lat="44.00169" lon="5.84031">
        <ele>517</ele>
        <time>2019-01-05T09:13:33Z</time>
      </trkpt>
      <trkpt lat="44.00182" lon="5.84027">
        <ele>517.79998779297</ele>
        <time>2019-01-05T09:13:46Z</time>
      </trkpt>
      <trkpt lat="44.00191" lon="5.84024">
        <ele>518</ele>
        <time>2019-01-05T09:13:54Z</time>
      </trkpt>
      <trkpt lat="44.00202" lon="5.84022">
        <ele>519.59997558594</ele>
        <time>2019-01-05T09:14:11Z</time>
      </trkpt>
      <trkpt lat="44.00213" lon="5.84024">
        <ele>521</ele>
        <time>2019-01-05T09:14:53Z</time>
      </trkpt>
      <trkpt lat="44.00223" lon="5.84029">
        <ele>522</ele>
        <time>2019-01-05T09:15:04Z</time>
      </trkpt>
      <trkpt lat="44.00236" lon="5.84036">
        <ele>524.20001220703</ele>
        <time>2019-01-05T09:15:21Z</time>
      </trkpt>
      <trkpt lat="44.00248" lon="5.84043">
        <ele>526.79998779297</ele>
        <time>2019-01-05T09:15:40Z</time>
      </trkpt>
      <trkpt lat="44.00265" lon="5.84046">
        <ele>529.40002441406</ele>
        <time>2019-01-05T09:16:01Z</time>
      </trkpt>
      <trkpt lat="44.00288" lon="5.84045">
        <ele>532</ele>
        <time>2019-01-05T09:16:21Z</time>
      </trkpt>
      <trkpt lat="44.00304" lon="5.84049">
        <ele>534</ele>
        <time>2019-01-05T09:16:37Z</time>
      </trkpt>
      <trkpt lat="44.00305" lon="5.8405">
        <ele>534.20001220703</ele>
        <time>2019-01-05T09:16:39Z</time>
      </trkpt>
      <trkpt lat="44.00309" lon="5.84051">
        <ele>534.79998779297</ele>
        <time>2019-01-05T09:16:42Z</time>
      </trkpt>
      <trkpt lat="44.00326" lon="5.84051">
        <ele>536.79998779297</ele>
        <time>2019-01-05T09:16:59Z</time>
      </trkpt>
      <trkpt lat="44.00338" lon="5.84049">
        <ele>537.59997558594</ele>
        <time>2019-01-05T09:17:13Z</time>
      </trkpt>
      <trkpt lat="44.00354" lon="5.84046">
        <ele>539.20001220703</ele>
        <time>2019-01-05T09:17:29Z</time>
      </trkpt>
      <trkpt lat="44.00368" lon="5.84047">
        <ele>540.79998779297</ele>
        <time>2019-01-05T09:17:43Z</time>
      </trkpt>
      <trkpt lat="44.00379" lon="5.84046">
        <ele>542.20001220703</ele>
        <time>2019-01-05T09:17:57Z</time>
      </trkpt>
      <trkpt lat="44.00381" lon="5.84046">
        <ele>542.40002441406</ele>
        <time>2019-01-05T09:17:59Z</time>
      </trkpt>
      <trkpt lat="44.00396" lon="5.84046">
        <ele>544.20001220703</ele>
        <time>2019-01-05T09:18:16Z</time>
      </trkpt>
      <trkpt lat="44.00408" lon="5.84048">
        <ele>545.79998779297</ele>
        <time>2019-01-05T09:18:32Z</time>
      </trkpt>
      <trkpt lat="44.00423" lon="5.84044">
        <ele>548.20001220703</ele>
        <time>2019-01-05T09:18:50Z</time>
      </trkpt>
      <trkpt lat="44.00435" lon="5.84036">
        <ele>550.20001220703</ele>
        <time>2019-01-05T09:19:06Z</time>
      </trkpt>
      <trkpt lat="44.00449" lon="5.84033">
        <ele>552.40002441406</ele>
        <time>2019-01-05T09:19:24Z</time>
      </trkpt>
      <trkpt lat="44.00461" lon="5.84033">
        <ele>554.20001220703</ele>
        <time>2019-01-05T09:19:41Z</time>
      </trkpt>
      <trkpt lat="44.00475" lon="5.84035">
        <ele>556.40002441406</ele>
        <time>2019-01-05T09:20:00Z</time>
      </trkpt>
      <trkpt lat="44.00484" lon="5.84034">
        <ele>558.20001220703</ele>
        <time>2019-01-05T09:20:15Z</time>
      </trkpt>
      <trkpt lat="44.00494" lon="5.84033">
        <ele>560</ele>
        <time>2019-01-05T09:20:32Z</time>
      </trkpt>
      <trkpt lat="44.00506" lon="5.84027">
        <ele>562</ele>
        <time>2019-01-05T09:20:49Z</time>
      </trkpt>
      <trkpt lat="44.00516" lon="5.84026">
        <ele>564.20001220703</ele>
        <time>2019-01-05T09:21:04Z</time>
      </trkpt>
      <trkpt lat="44.0052" lon="5.84026">
        <ele>565.59997558594</ele>
        <time>2019-01-05T09:21:21Z</time>
      </trkpt>
      <trkpt lat="44.00525" lon="5.84025">
        <ele>565.20001220703</ele>
        <time>2019-01-05T09:22:24Z</time>
      </trkpt>
      <trkpt lat="44.00524" lon="5.84027">
        <ele>565.40002441406</ele>
        <time>2019-01-05T09:22:34Z</time>
      </trkpt>
      <trkpt lat="44.00529" lon="5.8404">
        <ele>566.40002441406</ele>
        <time>2019-01-05T09:22:49Z</time>
      </trkpt>
      <trkpt lat="44.00536" lon="5.84046">
        <ele>569.20001220703</ele>
        <time>2019-01-05T09:23:07Z</time>
      </trkpt>
      <trkpt lat="44.00541" lon="5.84047">
        <ele>570.20001220703</ele>
        <time>2019-01-05T09:23:28Z</time>
      </trkpt>
      <trkpt lat="44.00539" lon="5.84046">
        <ele>571.20001220703</ele>
        <time>2019-01-05T09:24:18Z</time>
      </trkpt>
      <trkpt lat="44.00534" lon="5.84048">
        <ele>570</ele>
        <time>2019-01-05T09:24:34Z</time>
      </trkpt>
      <trkpt lat="44.00534" lon="5.8404">
        <ele>568.79998779297</ele>
        <time>2019-01-05T09:25:20Z</time>
      </trkpt>
      <trkpt lat="44.00533" lon="5.84032">
        <ele>567.79998779297</ele>
        <time>2019-01-05T09:25:35Z</time>
      </trkpt>
      <trkpt lat="44.00529" lon="5.8403">
        <ele>566</ele>
        <time>2019-01-05T09:26:02Z</time>
      </trkpt>
      <trkpt lat="44.00527" lon="5.84023">
        <ele>564.20001220703</ele>
        <time>2019-01-05T09:26:20Z</time>
      </trkpt>
      <trkpt lat="44.00527" lon="5.84023">
        <ele>563.79998779297</ele>
        <time>2019-01-05T09:26:54Z</time>
      </trkpt>
      <trkpt lat="44.00527" lon="5.84024">
        <ele>563.59997558594</ele>
        <time>2019-01-05T09:27:52Z</time>
      </trkpt>
      <trkpt lat="44.00528" lon="5.84023">
        <ele>563.40002441406</ele>
        <time>2019-01-05T09:30:33Z</time>
      </trkpt>
      <trkpt lat="44.00528" lon="5.84025">
        <ele>563.40002441406</ele>
        <time>2019-01-05T09:31:39Z</time>
      </trkpt>
      <trkpt lat="44.00531" lon="5.84023">
        <ele>563</ele>
        <time>2019-01-05T09:32:46Z</time>
      </trkpt>
      <trkpt lat="44.0054" lon="5.84019">
        <ele>563.59997558594</ele>
        <time>2019-01-05T09:33:03Z</time>
      </trkpt>
      <trkpt lat="44.00549" lon="5.84017">
        <ele>565.59997558594</ele>
        <time>2019-01-05T09:33:18Z</time>
      </trkpt>
      <trkpt lat="44.00559" lon="5.84018">
        <ele>567</ele>
        <time>2019-01-05T09:33:31Z</time>
      </trkpt>
      <trkpt lat="44.00571" lon="5.84014">
        <ele>569.40002441406</ele>
        <time>2019-01-05T09:33:49Z</time>
      </trkpt>
      <trkpt lat="44.00585" lon="5.84013">
        <ele>571.79998779297</ele>
        <time>2019-01-05T09:34:07Z</time>
      </trkpt>
      <trkpt lat="44.006" lon="5.84019">
        <ele>573.79998779297</ele>
        <time>2019-01-05T09:34:26Z</time>
      </trkpt>
      <trkpt lat="44.00603" lon="5.84021">
        <ele>574.40002441406</ele>
        <time>2019-01-05T09:34:30Z</time>
      </trkpt>
      <trkpt lat="44.00605" lon="5.84023">
        <ele>574.79998779297</ele>
        <time>2019-01-05T09:34:33Z</time>
      </trkpt>
      <trkpt lat="44.00617" lon="5.8403">
        <ele>575.79998779297</ele>
        <time>2019-01-05T09:34:47Z</time>
      </trkpt>
      <trkpt lat="44.0063" lon="5.84036">
        <ele>578.40002441406</ele>
        <time>2019-01-05T09:35:04Z</time>
      </trkpt>
      <trkpt lat="44.00644" lon="5.84039">
        <ele>579.79998779297</ele>
        <time>2019-01-05T09:35:20Z</time>
      </trkpt>
      <trkpt lat="44.00647" lon="5.84039">
        <ele>580.79998779297</ele>
        <time>2019-01-05T09:35:39Z</time>
      </trkpt>
      <trkpt lat="44.00654" lon="5.84038">
        <ele>580.79998779297</ele>
        <time>2019-01-05T09:36:26Z</time>
      </trkpt>
      <trkpt lat="44.00655" lon="5.84038">
        <ele>580.79998779297</ele>
        <time>2019-01-05T09:36:27Z</time>
      </trkpt>
      <trkpt lat="44.00669" lon="5.8404">
        <ele>581.59997558594</ele>
        <time>2019-01-05T09:36:42Z</time>
      </trkpt>
      <trkpt lat="44.00691" lon="5.84043">
        <ele>582</ele>
        <time>2019-01-05T09:37:00Z</time>
      </trkpt>
      <trkpt lat="44.00707" lon="5.84044">
        <ele>582.20001220703</ele>
        <time>2019-01-05T09:37:17Z</time>
      </trkpt>
      <trkpt lat="44.00731" lon="5.84047">
        <ele>582.59997558594</ele>
        <time>2019-01-05T09:37:39Z</time>
      </trkpt>
      <trkpt lat="44.00753" lon="5.84049">
        <ele>582.79998779297</ele>
        <time>2019-01-05T09:38:00Z</time>
      </trkpt>
      <trkpt lat="44.00772" lon="5.8405">
        <ele>583</ele>
        <time>2019-01-05T09:38:18Z</time>
      </trkpt>
      <trkpt lat="44.00788" lon="5.84052">
        <ele>583.40002441406</ele>
        <time>2019-01-05T09:38:32Z</time>
      </trkpt>
      <trkpt lat="44.00799" lon="5.84053">
        <ele>583.79998779297</ele>
        <time>2019-01-05T09:38:44Z</time>
      </trkpt>
      <trkpt lat="44.00813" lon="5.84056">
        <ele>584.40002441406</ele>
        <time>2019-01-05T09:38:58Z</time>
      </trkpt>
      <trkpt lat="44.00829" lon="5.84058">
        <ele>585.40002441406</ele>
        <time>2019-01-05T09:39:15Z</time>
      </trkpt>
      <trkpt lat="44.00845" lon="5.8406">
        <ele>586.79998779297</ele>
        <time>2019-01-05T09:39:32Z</time>
      </trkpt>
      <trkpt lat="44.00858" lon="5.84064">
        <ele>588.59997558594</ele>
        <time>2019-01-05T09:39:49Z</time>
      </trkpt>
      <trkpt lat="44.00871" lon="5.84071">
        <ele>591</ele>
        <time>2019-01-05T09:40:07Z</time>
      </trkpt>
      <trkpt lat="44.00883" lon="5.84074">
        <ele>593.40002441406</ele>
        <time>2019-01-05T09:40:25Z</time>
      </trkpt>
      <trkpt lat="44.00895" lon="5.84082">
        <ele>595.79998779297</ele>
        <time>2019-01-05T09:40:43Z</time>
      </trkpt>
      <trkpt lat="44.00907" lon="5.8409">
        <ele>598</ele>
        <time>2019-01-05T09:41:00Z</time>
      </trkpt>
      <trkpt lat="44.00919" lon="5.84094">
        <ele>600</ele>
        <time>2019-01-05T09:41:15Z</time>
      </trkpt>
      <trkpt lat="44.00932" lon="5.84096">
        <ele>601.40002441406</ele>
        <time>2019-01-05T09:41:31Z</time>
      </trkpt>
      <trkpt lat="44.00946" lon="5.84102">
        <ele>603</ele>
        <time>2019-01-05T09:41:47Z</time>
      </trkpt>
      <trkpt lat="44.0096" lon="5.84111">
        <ele>604.79998779297</ele>
        <time>2019-01-05T09:42:06Z</time>
      </trkpt>
      <trkpt lat="44.00968" lon="5.84114">
        <ele>605.79998779297</ele>
        <time>2019-01-05T09:42:16Z</time>
      </trkpt>
      <trkpt lat="44.00985" lon="5.8412">
        <ele>606.59997558594</ele>
        <time>2019-01-05T09:42:32Z</time>
      </trkpt>
      <trkpt lat="44.00999" lon="5.84126">
        <ele>607.59997558594</ele>
        <time>2019-01-05T09:42:48Z</time>
      </trkpt>
      <trkpt lat="44.01014" lon="5.84127">
        <ele>608</ele>
        <time>2019-01-05T09:43:03Z</time>
      </trkpt>
      <trkpt lat="44.01022" lon="5.84126">
        <ele>608.40002441406</ele>
        <time>2019-01-05T09:43:11Z</time>
      </trkpt>
      <trkpt lat="44.01038" lon="5.84118">
        <ele>608.59997558594</ele>
        <time>2019-01-05T09:43:32Z</time>
      </trkpt>
      <trkpt lat="44.01043" lon="5.8411">
        <ele>608.20001220703</ele>
        <time>2019-01-05T09:43:57Z</time>
      </trkpt>
      <trkpt lat="44.01046" lon="5.8411">
        <ele>608</ele>
        <time>2019-01-05T09:44:01Z</time>
      </trkpt>
      <trkpt lat="44.01066" lon="5.84105">
        <ele>608.20001220703</ele>
        <time>2019-01-05T09:44:20Z</time>
      </trkpt>
      <trkpt lat="44.01071" lon="5.84103">
        <ele>608.20001220703</ele>
        <time>2019-01-05T09:44:24Z</time>
      </trkpt>
      <trkpt lat="44.0109" lon="5.84098">
        <ele>608.40002441406</ele>
        <time>2019-01-05T09:44:43Z</time>
      </trkpt>
      <trkpt lat="44.01106" lon="5.84094">
        <ele>608.40002441406</ele>
        <time>2019-01-05T09:44:57Z</time>
      </trkpt>
      <trkpt lat="44.01122" lon="5.84091">
        <ele>608.59997558594</ele>
        <time>2019-01-05T09:45:14Z</time>
      </trkpt>
      <trkpt lat="44.01139" lon="5.84089">
        <ele>609</ele>
        <time>2019-01-05T09:45:30Z</time>
      </trkpt>
      <trkpt lat="44.01152" lon="5.84094">
        <ele>609.40002441406</ele>
        <time>2019-01-05T09:45:44Z</time>
      </trkpt>
      <trkpt lat="44.01167" lon="5.84088">
        <ele>610.20001220703</ele>
        <time>2019-01-05T09:46:00Z</time>
      </trkpt>
      <trkpt lat="44.01173" lon="5.84076">
        <ele>611.20001220703</ele>
        <time>2019-01-05T09:46:15Z</time>
      </trkpt>
      <trkpt lat="44.01172" lon="5.84073">
        <ele>612.20001220703</ele>
        <time>2019-01-05T09:46:37Z</time>
      </trkpt>
      <trkpt lat="44.01173" lon="5.84077">
        <ele>612.20001220703</ele>
        <time>2019-01-05T09:46:57Z</time>
      </trkpt>
      <trkpt lat="44.01176" lon="5.84077">
        <ele>612.20001220703</ele>
        <time>2019-01-05T09:47:00Z</time>
      </trkpt>
      <trkpt lat="44.01186" lon="5.84077">
        <ele>612.79998779297</ele>
        <time>2019-01-05T09:47:14Z</time>
      </trkpt>
      <trkpt lat="44.0119" lon="5.84085">
        <ele>614.20001220703</ele>
        <time>2019-01-05T09:47:33Z</time>
      </trkpt>
      <trkpt lat="44.01189" lon="5.8408">
        <ele>614.20001220703</ele>
        <time>2019-01-05T09:48:23Z</time>
      </trkpt>
      <trkpt lat="44.01179" lon="5.84077">
        <ele>614.20001220703</ele>
        <time>2019-01-05T09:48:41Z</time>
      </trkpt>
      <trkpt lat="44.01173" lon="5.84077">
        <ele>612.20001220703</ele>
        <time>2019-01-05T09:48:59Z</time>
      </trkpt>
      <trkpt lat="44.01174" lon="5.84073">
        <ele>612.20001220703</ele>
        <time>2019-01-05T09:49:28Z</time>
      </trkpt>
      <trkpt lat="44.01172" lon="5.84077">
        <ele>612</ele>
        <time>2019-01-05T09:50:03Z</time>
      </trkpt>
      <trkpt lat="44.01171" lon="5.84077">
        <ele>612.20001220703</ele>
        <time>2019-01-05T09:51:11Z</time>
      </trkpt>
      <trkpt lat="44.01178" lon="5.84079">
        <ele>612</ele>
        <time>2019-01-05T09:51:55Z</time>
      </trkpt>
      <trkpt lat="44.01193" lon="5.84077">
        <ele>612.79998779297</ele>
        <time>2019-01-05T09:52:12Z</time>
      </trkpt>
      <trkpt lat="44.01195" lon="5.84076">
        <ele>613</ele>
        <time>2019-01-05T09:52:13Z</time>
      </trkpt>
      <trkpt lat="44.0121" lon="5.84076">
        <ele>615.79998779297</ele>
        <time>2019-01-05T09:52:34Z</time>
      </trkpt>
      <trkpt lat="44.01224" lon="5.84081">
        <ele>618</ele>
        <time>2019-01-05T09:52:50Z</time>
      </trkpt>
      <trkpt lat="44.01235" lon="5.84083">
        <ele>619.59997558594</ele>
        <time>2019-01-05T09:53:05Z</time>
      </trkpt>
      <trkpt lat="44.01248" lon="5.84083">
        <ele>621.40002441406</ele>
        <time>2019-01-05T09:53:21Z</time>
      </trkpt>
      <trkpt lat="44.01258" lon="5.84081">
        <ele>623.40002441406</ele>
        <time>2019-01-05T09:53:50Z</time>
      </trkpt>
      <trkpt lat="44.01267" lon="5.84077">
        <ele>624.59997558594</ele>
        <time>2019-01-05T09:54:02Z</time>
      </trkpt>
      <trkpt lat="44.01275" lon="5.84076">
        <ele>626.59997558594</ele>
        <time>2019-01-05T09:54:16Z</time>
      </trkpt>
      <trkpt lat="44.01286" lon="5.84072">
        <ele>629.59997558594</ele>
        <time>2019-01-05T09:54:32Z</time>
      </trkpt>
      <trkpt lat="44.01299" lon="5.8407">
        <ele>632</ele>
        <time>2019-01-05T09:54:49Z</time>
      </trkpt>
      <trkpt lat="44.01312" lon="5.84064">
        <ele>634.79998779297</ele>
        <time>2019-01-05T09:55:07Z</time>
      </trkpt>
      <trkpt lat="44.01323" lon="5.84061">
        <ele>636.59997558594</ele>
        <time>2019-01-05T09:55:22Z</time>
      </trkpt>
      <trkpt lat="44.01325" lon="5.84061">
        <ele>636.79998779297</ele>
        <time>2019-01-05T09:55:25Z</time>
      </trkpt>
      <trkpt lat="44.01341" lon="5.84062">
        <ele>639.20001220703</ele>
        <time>2019-01-05T09:55:43Z</time>
      </trkpt>
      <trkpt lat="44.0135" lon="5.84065">
        <ele>641</ele>
        <time>2019-01-05T09:55:59Z</time>
      </trkpt>
      <trkpt lat="44.01368" lon="5.84067">
        <ele>643.59997558594</ele>
        <time>2019-01-05T09:56:21Z</time>
      </trkpt>
      <trkpt lat="44.01381" lon="5.84072">
        <ele>645.79998779297</ele>
        <time>2019-01-05T09:56:37Z</time>
      </trkpt>
      <trkpt lat="44.01392" lon="5.84076">
        <ele>648.20001220703</ele>
        <time>2019-01-05T09:56:55Z</time>
      </trkpt>
      <trkpt lat="44.01407" lon="5.84083">
        <ele>651</ele>
        <time>2019-01-05T09:57:14Z</time>
      </trkpt>
      <trkpt lat="44.01417" lon="5.84083">
        <ele>652.79998779297</ele>
        <time>2019-01-05T09:57:28Z</time>
      </trkpt>
      <trkpt lat="44.01428" lon="5.84077">
        <ele>654.79998779297</ele>
        <time>2019-01-05T09:57:42Z</time>
      </trkpt>
      <trkpt lat="44.01434" lon="5.84075">
        <ele>656.20001220703</ele>
        <time>2019-01-05T09:58:05Z</time>
      </trkpt>
      <trkpt lat="44.01434" lon="5.84077">
        <ele>655.59997558594</ele>
        <time>2019-01-05T09:58:52Z</time>
      </trkpt>
      <trkpt lat="44.01439" lon="5.84076">
        <ele>655.20001220703</ele>
        <time>2019-01-05T09:59:50Z</time>
      </trkpt>
      <trkpt lat="44.0145" lon="5.84072">
        <ele>655.20001220703</ele>
        <time>2019-01-05T10:00:04Z</time>
      </trkpt>
      <trkpt lat="44.01463" lon="5.84076">
        <ele>656.40002441406</ele>
        <time>2019-01-05T10:00:19Z</time>
      </trkpt>
      <trkpt lat="44.01475" lon="5.84081">
        <ele>658.40002441406</ele>
        <time>2019-01-05T10:00:35Z</time>
      </trkpt>
      <trkpt lat="44.01476" lon="5.84081">
        <ele>658.59997558594</ele>
        <time>2019-01-05T10:00:36Z</time>
      </trkpt>
      <trkpt lat="44.01493" lon="5.84078">
        <ele>658.79998779297</ele>
        <time>2019-01-05T10:00:53Z</time>
      </trkpt>
      <trkpt lat="44.01504" lon="5.84065">
        <ele>658.59997558594</ele>
        <time>2019-01-05T10:01:10Z</time>
      </trkpt>
      <trkpt lat="44.01511" lon="5.8406">
        <ele>658.59997558594</ele>
        <time>2019-01-05T10:01:23Z</time>
      </trkpt>
      <trkpt lat="44.01514" lon="5.84061">
        <ele>658.59997558594</ele>
        <time>2019-01-05T10:01:26Z</time>
      </trkpt>
      <trkpt lat="44.01522" lon="5.84053">
        <ele>658.59997558594</ele>
        <time>2019-01-05T10:01:36Z</time>
      </trkpt>
      <trkpt lat="44.01543" lon="5.84037">
        <ele>659.20001220703</ele>
        <time>2019-01-05T10:01:58Z</time>
      </trkpt>
      <trkpt lat="44.01556" lon="5.84025">
        <ele>660</ele>
        <time>2019-01-05T10:02:12Z</time>
      </trkpt>
      <trkpt lat="44.01566" lon="5.8401">
        <ele>660</ele>
        <time>2019-01-05T10:02:27Z</time>
      </trkpt>
      <trkpt lat="44.01578" lon="5.83998">
        <ele>660</ele>
        <time>2019-01-05T10:02:41Z</time>
      </trkpt>
      <trkpt lat="44.01591" lon="5.83981">
        <ele>660.59997558594</ele>
        <time>2019-01-05T10:02:58Z</time>
      </trkpt>
      <trkpt lat="44.016" lon="5.83968">
        <ele>661.40002441406</ele>
        <time>2019-01-05T10:03:13Z</time>
      </trkpt>
      <trkpt lat="44.01604" lon="5.83965">
        <ele>661.79998779297</ele>
        <time>2019-01-05T10:03:19Z</time>
      </trkpt>
      <trkpt lat="44.01608" lon="5.83957">
        <ele>662.59997558594</ele>
        <time>2019-01-05T10:03:25Z</time>
      </trkpt>
      <trkpt lat="44.0161" lon="5.83955">
        <ele>663</ele>
        <time>2019-01-05T10:03:28Z</time>
      </trkpt>
      <trkpt lat="44.01614" lon="5.83944">
        <ele>663.59997558594</ele>
        <time>2019-01-05T10:03:38Z</time>
      </trkpt>
      <trkpt lat="44.01624" lon="5.83931">
        <ele>664.79998779297</ele>
        <time>2019-01-05T10:03:53Z</time>
      </trkpt>
      <trkpt lat="44.01633" lon="5.83917">
        <ele>666.40002441406</ele>
        <time>2019-01-05T10:04:09Z</time>
      </trkpt>
      <trkpt lat="44.0164" lon="5.83903">
        <ele>667.20001220703</ele>
        <time>2019-01-05T10:04:22Z</time>
      </trkpt>
      <trkpt lat="44.01652" lon="5.83889">
        <ele>667.79998779297</ele>
        <time>2019-01-05T10:04:40Z</time>
      </trkpt>
      <trkpt lat="44.01658" lon="5.8388">
        <ele>668.40002441406</ele>
        <time>2019-01-05T10:04:57Z</time>
      </trkpt>
      <trkpt lat="44.01664" lon="5.83864">
        <ele>668.79998779297</ele>
        <time>2019-01-05T10:05:14Z</time>
      </trkpt>
      <trkpt lat="44.01665" lon="5.83853">
        <ele>669</ele>
        <time>2019-01-05T10:05:24Z</time>
      </trkpt>
      <trkpt lat="44.01662" lon="5.83847">
        <ele>669</ele>
        <time>2019-01-05T10:05:28Z</time>
      </trkpt>
      <trkpt lat="44.01649" lon="5.83833">
        <ele>669.59997558594</ele>
        <time>2019-01-05T10:05:45Z</time>
      </trkpt>
      <trkpt lat="44.01646" lon="5.83829">
        <ele>669.79998779297</ele>
        <time>2019-01-05T10:05:49Z</time>
      </trkpt>
      <trkpt lat="44.01651" lon="5.83808">
        <ele>670.59997558594</ele>
        <time>2019-01-05T10:06:07Z</time>
      </trkpt>
      <trkpt lat="44.01662" lon="5.83794">
        <ele>672.59997558594</ele>
        <time>2019-01-05T10:06:25Z</time>
      </trkpt>
      <trkpt lat="44.0167" lon="5.83782">
        <ele>674.59997558594</ele>
        <time>2019-01-05T10:06:41Z</time>
      </trkpt>
      <trkpt lat="44.0168" lon="5.83773">
        <ele>677</ele>
        <time>2019-01-05T10:06:56Z</time>
      </trkpt>
      <trkpt lat="44.01688" lon="5.83759">
        <ele>679.79998779297</ele>
        <time>2019-01-05T10:07:15Z</time>
      </trkpt>
      <trkpt lat="44.01698" lon="5.83745">
        <ele>682</ele>
        <time>2019-01-05T10:07:34Z</time>
      </trkpt>
      <trkpt lat="44.01704" lon="5.83735">
        <ele>684</ele>
        <time>2019-01-05T10:07:49Z</time>
      </trkpt>
      <trkpt lat="44.01712" lon="5.83718">
        <ele>685.79998779297</ele>
        <time>2019-01-05T10:08:10Z</time>
      </trkpt>
      <trkpt lat="44.01721" lon="5.837">
        <ele>688.79998779297</ele>
        <time>2019-01-05T10:08:33Z</time>
      </trkpt>
      <trkpt lat="44.0173" lon="5.83691">
        <ele>690.59997558594</ele>
        <time>2019-01-05T10:08:50Z</time>
      </trkpt>
      <trkpt lat="44.01737" lon="5.83684">
        <ele>692.20001220703</ele>
        <time>2019-01-05T10:09:07Z</time>
      </trkpt>
      <trkpt lat="44.01744" lon="5.83666">
        <ele>694.59997558594</ele>
        <time>2019-01-05T10:09:27Z</time>
      </trkpt>
      <trkpt lat="44.0175" lon="5.83646">
        <ele>697</ele>
        <time>2019-01-05T10:09:47Z</time>
      </trkpt>
      <trkpt lat="44.01752" lon="5.83635">
        <ele>698.20001220703</ele>
        <time>2019-01-05T10:09:56Z</time>
      </trkpt>
      <trkpt lat="44.01756" lon="5.83618">
        <ele>699.59997558594</ele>
        <time>2019-01-05T10:10:12Z</time>
      </trkpt>
      <trkpt lat="44.01763" lon="5.83602">
        <ele>701.20001220703</ele>
        <time>2019-01-05T10:10:29Z</time>
      </trkpt>
      <trkpt lat="44.01768" lon="5.83584">
        <ele>703.40002441406</ele>
        <time>2019-01-05T10:10:47Z</time>
      </trkpt>
      <trkpt lat="44.01776" lon="5.83566">
        <ele>705.40002441406</ele>
        <time>2019-01-05T10:11:07Z</time>
      </trkpt>
      <trkpt lat="44.01779" lon="5.8356">
        <ele>707.59997558594</ele>
        <time>2019-01-05T10:11:28Z</time>
      </trkpt>
      <trkpt lat="44.01788" lon="5.83541">
        <ele>709.20001220703</ele>
        <time>2019-01-05T10:11:48Z</time>
      </trkpt>
      <trkpt lat="44.01792" lon="5.83535">
        <ele>710.59997558594</ele>
        <time>2019-01-05T10:11:56Z</time>
      </trkpt>
      <trkpt lat="44.01802" lon="5.8352">
        <ele>712.59997558594</ele>
        <time>2019-01-05T10:12:14Z</time>
      </trkpt>
      <trkpt lat="44.01811" lon="5.83504">
        <ele>715.79998779297</ele>
        <time>2019-01-05T10:12:32Z</time>
      </trkpt>
      <trkpt lat="44.0182" lon="5.83488">
        <ele>718.40002441406</ele>
        <time>2019-01-05T10:12:52Z</time>
      </trkpt>
      <trkpt lat="44.01829" lon="5.83471">
        <ele>720.79998779297</ele>
        <time>2019-01-05T10:13:12Z</time>
      </trkpt>
      <trkpt lat="44.01836" lon="5.83461">
        <ele>722.79998779297</ele>
        <time>2019-01-05T10:13:25Z</time>
      </trkpt>
      <trkpt lat="44.01844" lon="5.83448">
        <ele>724.79998779297</ele>
        <time>2019-01-05T10:13:41Z</time>
      </trkpt>
      <trkpt lat="44.01854" lon="5.83432">
        <ele>727.59997558594</ele>
        <time>2019-01-05T10:14:02Z</time>
      </trkpt>
      <trkpt lat="44.01862" lon="5.83421">
        <ele>729.79998779297</ele>
        <time>2019-01-05T10:14:18Z</time>
      </trkpt>
      <trkpt lat="44.01871" lon="5.83411">
        <ele>732</ele>
        <time>2019-01-05T10:14:34Z</time>
      </trkpt>
      <trkpt lat="44.01881" lon="5.834">
        <ele>733.59997558594</ele>
        <time>2019-01-05T10:14:50Z</time>
      </trkpt>
      <trkpt lat="44.01892" lon="5.83389">
        <ele>736</ele>
        <time>2019-01-05T10:15:09Z</time>
      </trkpt>
      <trkpt lat="44.019" lon="5.83373">
        <ele>738.40002441406</ele>
        <time>2019-01-05T10:15:27Z</time>
      </trkpt>
      <trkpt lat="44.01907" lon="5.83358">
        <ele>741.40002441406</ele>
        <time>2019-01-05T10:15:46Z</time>
      </trkpt>
      <trkpt lat="44.01909" lon="5.83353">
        <ele>743.40002441406</ele>
        <time>2019-01-05T10:16:09Z</time>
      </trkpt>
      <trkpt lat="44.0191" lon="5.83353">
        <ele>743.40002441406</ele>
        <time>2019-01-05T10:16:38Z</time>
      </trkpt>
      <trkpt lat="44.01913" lon="5.83354">
        <ele>743.40002441406</ele>
        <time>2019-01-05T10:18:24Z</time>
      </trkpt>
      <trkpt lat="44.01911" lon="5.83351">
        <ele>743.59997558594</ele>
        <time>2019-01-05T10:18:54Z</time>
      </trkpt>
      <trkpt lat="44.01909" lon="5.83351">
        <ele>743.20001220703</ele>
        <time>2019-01-05T10:20:02Z</time>
      </trkpt>
      <trkpt lat="44.01911" lon="5.83353">
        <ele>743.20001220703</ele>
        <time>2019-01-05T10:20:52Z</time>
      </trkpt>
      <trkpt lat="44.0191" lon="5.83351">
        <ele>743.20001220703</ele>
        <time>2019-01-05T10:21:26Z</time>
      </trkpt>
      <trkpt lat="44.01911" lon="5.83346">
        <ele>743.20001220703</ele>
        <time>2019-01-05T10:22:56Z</time>
      </trkpt>
      <trkpt lat="44.01913" lon="5.83349">
        <ele>743.20001220703</ele>
        <time>2019-01-05T10:23:45Z</time>
      </trkpt>
      <trkpt lat="44.01912" lon="5.83351">
        <ele>743.59997558594</ele>
        <time>2019-01-05T10:24:43Z</time>
      </trkpt>
      <trkpt lat="44.01914" lon="5.83349">
        <ele>744.20001220703</ele>
        <time>2019-01-05T10:26:21Z</time>
      </trkpt>
      <trkpt lat="44.01909" lon="5.83352">
        <ele>744.40002441406</ele>
        <time>2019-01-05T10:27:43Z</time>
      </trkpt>
      <trkpt lat="44.01916" lon="5.83333">
        <ele>745.40002441406</ele>
        <time>2019-01-05T10:28:03Z</time>
      </trkpt>
      <trkpt lat="44.01922" lon="5.83315">
        <ele>747</ele>
        <time>2019-01-05T10:28:21Z</time>
      </trkpt>
      <trkpt lat="44.01929" lon="5.83292">
        <ele>749.79998779297</ele>
        <time>2019-01-05T10:28:44Z</time>
      </trkpt>
      <trkpt lat="44.01933" lon="5.83284">
        <ele>751.40002441406</ele>
        <time>2019-01-05T10:29:05Z</time>
      </trkpt>
      <trkpt lat="44.01934" lon="5.83286">
        <ele>751.59997558594</ele>
        <time>2019-01-05T10:29:46Z</time>
      </trkpt>
      <trkpt lat="44.01933" lon="5.83284">
        <ele>751.59997558594</ele>
        <time>2019-01-05T10:30:51Z</time>
      </trkpt>
      <trkpt lat="44.01939" lon="5.83286">
        <ele>751.59997558594</ele>
        <time>2019-01-05T10:31:15Z</time>
      </trkpt>
      <trkpt lat="44.01953" lon="5.83293">
        <ele>752</ele>
        <time>2019-01-05T10:31:31Z</time>
      </trkpt>
      <trkpt lat="44.01958" lon="5.83296">
        <ele>752</ele>
        <time>2019-01-05T10:31:50Z</time>
      </trkpt>
      <trkpt lat="44.01962" lon="5.83296">
        <ele>752</ele>
        <time>2019-01-05T10:32:42Z</time>
      </trkpt>
      <trkpt lat="44.02083" lon="5.83396">
        <ele>775.20001220703</ele>
        <time>2019-01-05T10:39:01Z</time>
      </trkpt>
      <trkpt lat="44.02082" lon="5.83406">
        <ele>775</ele>
        <time>2019-01-05T10:39:09Z</time>
      </trkpt>
      <trkpt lat="44.02089" lon="5.83417">
        <ele>771.59997558594</ele>
        <time>2019-01-05T10:39:22Z</time>
      </trkpt>
      <trkpt lat="44.02094" lon="5.83424">
        <ele>768.59997558594</ele>
        <time>2019-01-05T10:39:29Z</time>
      </trkpt>
      <trkpt lat="44.02101" lon="5.83432">
        <ele>765.59997558594</ele>
        <time>2019-01-05T10:39:36Z</time>
      </trkpt>
      <trkpt lat="44.02103" lon="5.83435">
        <ele>764.59997558594</ele>
        <time>2019-01-05T10:39:39Z</time>
      </trkpt>
      <trkpt lat="44.02118" lon="5.83445">
        <ele>761.40002441406</ele>
        <time>2019-01-05T10:39:54Z</time>
      </trkpt>
      <trkpt lat="44.02136" lon="5.83451">
        <ele>760</ele>
        <time>2019-01-05T10:40:16Z</time>
      </trkpt>
      <trkpt lat="44.02151" lon="5.83455">
        <ele>760.79998779297</ele>
        <time>2019-01-05T10:40:33Z</time>
      </trkpt>
      <trkpt lat="44.02157" lon="5.83455">
        <ele>761.40002441406</ele>
        <time>2019-01-05T10:40:40Z</time>
      </trkpt>
      <trkpt lat="44.02162" lon="5.83455">
        <ele>762</ele>
        <time>2019-01-05T10:40:45Z</time>
      </trkpt>
      <trkpt lat="44.02169" lon="5.83457">
        <ele>762</ele>
        <time>2019-01-05T10:40:52Z</time>
      </trkpt>
      <trkpt lat="44.02177" lon="5.83458">
        <ele>762.59997558594</ele>
        <time>2019-01-05T10:41:01Z</time>
      </trkpt>
      <trkpt lat="44.0219" lon="5.83461">
        <ele>763.59997558594</ele>
        <time>2019-01-05T10:41:16Z</time>
      </trkpt>
      <trkpt lat="44.02199" lon="5.83463">
        <ele>765</ele>
        <time>2019-01-05T10:41:26Z</time>
      </trkpt>
      <trkpt lat="44.02214" lon="5.83468">
        <ele>765.79998779297</ele>
        <time>2019-01-05T10:41:41Z</time>
      </trkpt>
      <trkpt lat="44.02225" lon="5.83463">
        <ele>767.20001220703</ele>
        <time>2019-01-05T10:42:01Z</time>
      </trkpt>
      <trkpt lat="44.02234" lon="5.83455">
        <ele>769.59997558594</ele>
        <time>2019-01-05T10:42:19Z</time>
      </trkpt>
      <trkpt lat="44.02237" lon="5.83455">
        <ele>770.20001220703</ele>
        <time>2019-01-05T10:42:43Z</time>
      </trkpt>
      <trkpt lat="44.02233" lon="5.83456">
        <ele>770.59997558594</ele>
        <time>2019-01-05T10:44:11Z</time>
      </trkpt>
      <trkpt lat="44.0223" lon="5.83461">
        <ele>770.40002441406</ele>
        <time>2019-01-05T10:44:33Z</time>
      </trkpt>
      <trkpt lat="44.02225" lon="5.8347">
        <ele>769.40002441406</ele>
        <time>2019-01-05T10:44:49Z</time>
      </trkpt>
      <trkpt lat="44.02238" lon="5.83473">
        <ele>767.79998779297</ele>
        <time>2019-01-05T10:45:03Z</time>
      </trkpt>
      <trkpt lat="44.02255" lon="5.83477">
        <ele>768</ele>
        <time>2019-01-05T10:45:21Z</time>
      </trkpt>
      <trkpt lat="44.02272" lon="5.8348">
        <ele>768</ele>
        <time>2019-01-05T10:45:39Z</time>
      </trkpt>
      <trkpt lat="44.0229" lon="5.83485">
        <ele>768</ele>
        <time>2019-01-05T10:45:58Z</time>
      </trkpt>
      <trkpt lat="44.02292" lon="5.83485">
        <ele>768</ele>
        <time>2019-01-05T10:46:00Z</time>
      </trkpt>
      <trkpt lat="44.02306" lon="5.83487">
        <ele>768.20001220703</ele>
        <time>2019-01-05T10:46:15Z</time>
      </trkpt>
      <trkpt lat="44.02323" lon="5.83491">
        <ele>768.59997558594</ele>
        <time>2019-01-05T10:46:32Z</time>
      </trkpt>
      <trkpt lat="44.02339" lon="5.83495">
        <ele>769.40002441406</ele>
        <time>2019-01-05T10:46:50Z</time>
      </trkpt>
      <trkpt lat="44.02351" lon="5.83497">
        <ele>770.20001220703</ele>
        <time>2019-01-05T10:47:08Z</time>
      </trkpt>
      <trkpt lat="44.02362" lon="5.835">
        <ele>771.40002441406</ele>
        <time>2019-01-05T10:47:28Z</time>
      </trkpt>
      <trkpt lat="44.02372" lon="5.83504">
        <ele>772.79998779297</ele>
        <time>2019-01-05T10:47:44Z</time>
      </trkpt>
      <trkpt lat="44.02382" lon="5.83504">
        <ele>774.20001220703</ele>
        <time>2019-01-05T10:48:01Z</time>
      </trkpt>
      <trkpt lat="44.02394" lon="5.83506">
        <ele>775.40002441406</ele>
        <time>2019-01-05T10:48:18Z</time>
      </trkpt>
      <trkpt lat="44.02409" lon="5.83507">
        <ele>776.79998779297</ele>
        <time>2019-01-05T10:48:35Z</time>
      </trkpt>
      <trkpt lat="44.0241" lon="5.83507">
        <ele>776.79998779297</ele>
        <time>2019-01-05T10:48:36Z</time>
      </trkpt>
      <trkpt lat="44.02427" lon="5.83508">
        <ele>777.59997558594</ele>
        <time>2019-01-05T10:48:52Z</time>
      </trkpt>
      <trkpt lat="44.02439" lon="5.83509">
        <ele>778</ele>
        <time>2019-01-05T10:49:06Z</time>
      </trkpt>
      <trkpt lat="44.02447" lon="5.8351">
        <ele>778.40002441406</ele>
        <time>2019-01-05T10:49:21Z</time>
      </trkpt>
      <trkpt lat="44.02451" lon="5.83511">
        <ele>778.20001220703</ele>
        <time>2019-01-05T10:49:54Z</time>
      </trkpt>
      <trkpt lat="44.02452" lon="5.8351">
        <ele>778</ele>
        <time>2019-01-05T10:51:00Z</time>
      </trkpt>
      <trkpt lat="44.02457" lon="5.83509">
        <ele>777.79998779297</ele>
        <time>2019-01-05T10:51:26Z</time>
      </trkpt>
      <trkpt lat="44.02465" lon="5.83504">
        <ele>776.79998779297</ele>
        <time>2019-01-05T10:51:50Z</time>
      </trkpt>
      <trkpt lat="44.02475" lon="5.83498">
        <ele>775.59997558594</ele>
        <time>2019-01-05T10:52:06Z</time>
      </trkpt>
      <trkpt lat="44.02485" lon="5.83489">
        <ele>773.59997558594</ele>
        <time>2019-01-05T10:52:24Z</time>
      </trkpt>
      <trkpt lat="44.02495" lon="5.83472">
        <ele>771.59997558594</ele>
        <time>2019-01-05T10:52:43Z</time>
      </trkpt>
      <trkpt lat="44.02504" lon="5.83457">
        <ele>769.20001220703</ele>
        <time>2019-01-05T10:53:02Z</time>
      </trkpt>
      <trkpt lat="44.02506" lon="5.83451">
        <ele>768.20001220703</ele>
        <time>2019-01-05T10:53:08Z</time>
      </trkpt>
      <trkpt lat="44.02516" lon="5.8344">
        <ele>766</ele>
        <time>2019-01-05T10:53:23Z</time>
      </trkpt>
      <trkpt lat="44.02527" lon="5.83429">
        <ele>764.20001220703</ele>
        <time>2019-01-05T10:53:39Z</time>
      </trkpt>
      <trkpt lat="44.0253" lon="5.83412">
        <ele>763.59997558594</ele>
        <time>2019-01-05T10:53:55Z</time>
      </trkpt>
      <trkpt lat="44.02532" lon="5.83395">
        <ele>765.20001220703</ele>
        <time>2019-01-05T10:54:13Z</time>
      </trkpt>
      <trkpt lat="44.02537" lon="5.83375">
        <ele>766.20001220703</ele>
        <time>2019-01-05T10:54:30Z</time>
      </trkpt>
      <trkpt lat="44.02541" lon="5.83354">
        <ele>767.40002441406</ele>
        <time>2019-01-05T10:54:49Z</time>
      </trkpt>
      <trkpt lat="44.02546" lon="5.83334">
        <ele>769.59997558594</ele>
        <time>2019-01-05T10:55:07Z</time>
      </trkpt>
      <trkpt lat="44.02552" lon="5.83307">
        <ele>771.20001220703</ele>
        <time>2019-01-05T10:55:26Z</time>
      </trkpt>
      <trkpt lat="44.02555" lon="5.8329">
        <ele>771.40002441406</ele>
        <time>2019-01-05T10:55:41Z</time>
      </trkpt>
      <trkpt lat="44.02557" lon="5.83285">
        <ele>771.59997558594</ele>
        <time>2019-01-05T10:55:44Z</time>
      </trkpt>
      <trkpt lat="44.02568" lon="5.8327">
        <ele>771.20001220703</ele>
        <time>2019-01-05T10:55:59Z</time>
      </trkpt>
      <trkpt lat="44.02583" lon="5.8326">
        <ele>769.79998779297</ele>
        <time>2019-01-05T10:56:17Z</time>
      </trkpt>
      <trkpt lat="44.02584" lon="5.83259">
        <ele>769.79998779297</ele>
        <time>2019-01-05T10:56:19Z</time>
      </trkpt>
      <trkpt lat="44.02588" lon="5.83256">
        <ele>769.79998779297</ele>
        <time>2019-01-05T10:56:22Z</time>
      </trkpt>
      <trkpt lat="44.02599" lon="5.8324">
        <ele>769.79998779297</ele>
        <time>2019-01-05T10:56:39Z</time>
      </trkpt>
      <trkpt lat="44.0261" lon="5.83219">
        <ele>771.40002441406</ele>
        <time>2019-01-05T10:56:59Z</time>
      </trkpt>
      <trkpt lat="44.02621" lon="5.83203">
        <ele>771.59997558594</ele>
        <time>2019-01-05T10:57:14Z</time>
      </trkpt>
      <trkpt lat="44.02622" lon="5.83201">
        <ele>771.59997558594</ele>
        <time>2019-01-05T10:57:16Z</time>
      </trkpt>
      <trkpt lat="44.02629" lon="5.83193">
        <ele>772</ele>
        <time>2019-01-05T10:57:24Z</time>
      </trkpt>
      <trkpt lat="44.02639" lon="5.83175">
        <ele>773</ele>
        <time>2019-01-05T10:57:41Z</time>
      </trkpt>
      <trkpt lat="44.0265" lon="5.83159">
        <ele>774.79998779297</ele>
        <time>2019-01-05T10:57:57Z</time>
      </trkpt>
      <trkpt lat="44.0266" lon="5.8315">
        <ele>775.59997558594</ele>
        <time>2019-01-05T10:58:09Z</time>
      </trkpt>
      <trkpt lat="44.02668" lon="5.83145">
        <ele>776.59997558594</ele>
        <time>2019-01-05T10:58:20Z</time>
      </trkpt>
      <trkpt lat="44.02675" lon="5.83133">
        <ele>776.40002441406</ele>
        <time>2019-01-05T10:58:32Z</time>
      </trkpt>
      <trkpt lat="44.02677" lon="5.8312">
        <ele>776</ele>
        <time>2019-01-05T10:58:43Z</time>
      </trkpt>
      <trkpt lat="44.02679" lon="5.83105">
        <ele>775.59997558594</ele>
        <time>2019-01-05T10:58:51Z</time>
      </trkpt>
      <trkpt lat="44.02682" lon="5.83096">
        <ele>775.59997558594</ele>
        <time>2019-01-05T10:58:56Z</time>
      </trkpt>
      <trkpt lat="44.02683" lon="5.83092">
        <ele>775.59997558594</ele>
        <time>2019-01-05T10:58:59Z</time>
      </trkpt>
      <trkpt lat="44.02692" lon="5.83076">
        <ele>775.40002441406</ele>
        <time>2019-01-05T10:59:13Z</time>
      </trkpt>
      <trkpt lat="44.02698" lon="5.83062">
        <ele>774.40002441406</ele>
        <time>2019-01-05T10:59:25Z</time>
      </trkpt>
      <trkpt lat="44.02699" lon="5.83058">
        <ele>774.20001220703</ele>
        <time>2019-01-05T10:59:27Z</time>
      </trkpt>
      <trkpt lat="44.02705" lon="5.83035">
        <ele>773.40002441406</ele>
        <time>2019-01-05T10:59:44Z</time>
      </trkpt>
      <trkpt lat="44.02709" lon="5.83023">
        <ele>772.79998779297</ele>
        <time>2019-01-05T10:59:55Z</time>
      </trkpt>
      <trkpt lat="44.02713" lon="5.83005">
        <ele>771.59997558594</ele>
        <time>2019-01-05T11:00:09Z</time>
      </trkpt>
      <trkpt lat="44.02718" lon="5.82982">
        <ele>770.40002441406</ele>
        <time>2019-01-05T11:00:27Z</time>
      </trkpt>
      <trkpt lat="44.02723" lon="5.8296">
        <ele>770.20001220703</ele>
        <time>2019-01-05T11:00:44Z</time>
      </trkpt>
      <trkpt lat="44.02726" lon="5.82944">
        <ele>769.20001220703</ele>
        <time>2019-01-05T11:00:57Z</time>
      </trkpt>
      <trkpt lat="44.02737" lon="5.82932">
        <ele>768.79998779297</ele>
        <time>2019-01-05T11:01:17Z</time>
      </trkpt>
      <trkpt lat="44.02745" lon="5.82919">
        <ele>767.40002441406</ele>
        <time>2019-01-05T11:01:30Z</time>
      </trkpt>
      <trkpt lat="44.0275" lon="5.82902">
        <ele>766.20001220703</ele>
        <time>2019-01-05T11:01:46Z</time>
      </trkpt>
      <trkpt lat="44.02754" lon="5.82884">
        <ele>767</ele>
        <time>2019-01-05T11:02:01Z</time>
      </trkpt>
      <trkpt lat="44.02754" lon="5.82879">
        <ele>767.20001220703</ele>
        <time>2019-01-05T11:02:05Z</time>
      </trkpt>
      <trkpt lat="44.02755" lon="5.82875">
        <ele>767.20001220703</ele>
        <time>2019-01-05T11:02:08Z</time>
      </trkpt>
      <trkpt lat="44.02757" lon="5.82867">
        <ele>767.20001220703</ele>
        <time>2019-01-05T11:02:14Z</time>
      </trkpt>
      <trkpt lat="44.02758" lon="5.82856">
        <ele>766.79998779297</ele>
        <time>2019-01-05T11:02:29Z</time>
      </trkpt>
      <trkpt lat="44.02754" lon="5.82851">
        <ele>766.20001220703</ele>
        <time>2019-01-05T11:03:05Z</time>
      </trkpt>
      <trkpt lat="44.02756" lon="5.82841">
        <ele>766</ele>
        <time>2019-01-05T11:03:23Z</time>
      </trkpt>
      <trkpt lat="44.02757" lon="5.82827">
        <ele>766.20001220703</ele>
        <time>2019-01-05T11:03:38Z</time>
      </trkpt>
      <trkpt lat="44.02758" lon="5.82815">
        <ele>766.59997558594</ele>
        <time>2019-01-05T11:03:50Z</time>
      </trkpt>
      <trkpt lat="44.02759" lon="5.82798">
        <ele>767.59997558594</ele>
        <time>2019-01-05T11:04:04Z</time>
      </trkpt>
      <trkpt lat="44.02762" lon="5.82778">
        <ele>768.59997558594</ele>
        <time>2019-01-05T11:04:20Z</time>
      </trkpt>
      <trkpt lat="44.02762" lon="5.82763">
        <ele>768.59997558594</ele>
        <time>2019-01-05T11:04:32Z</time>
      </trkpt>
      <trkpt lat="44.02761" lon="5.82742">
        <ele>769.20001220703</ele>
        <time>2019-01-05T11:04:48Z</time>
      </trkpt>
      <trkpt lat="44.0276" lon="5.8272">
        <ele>769.79998779297</ele>
        <time>2019-01-05T11:05:04Z</time>
      </trkpt>
      <trkpt lat="44.02766" lon="5.82704">
        <ele>770.20001220703</ele>
        <time>2019-01-05T11:05:19Z</time>
      </trkpt>
      <trkpt lat="44.02768" lon="5.82702">
        <ele>770.20001220703</ele>
        <time>2019-01-05T11:05:22Z</time>
      </trkpt>
      <trkpt lat="44.02771" lon="5.82699">
        <ele>770.20001220703</ele>
        <time>2019-01-05T11:05:27Z</time>
      </trkpt>
      <trkpt lat="44.02772" lon="5.82695">
        <ele>770.20001220703</ele>
        <time>2019-01-05T11:05:30Z</time>
      </trkpt>
      <trkpt lat="44.02781" lon="5.82683">
        <ele>769.40002441406</ele>
        <time>2019-01-05T11:05:44Z</time>
      </trkpt>
      <trkpt lat="44.02783" lon="5.82681">
        <ele>769</ele>
        <time>2019-01-05T11:05:47Z</time>
      </trkpt>
      <trkpt lat="44.02787" lon="5.82679">
        <ele>768.59997558594</ele>
        <time>2019-01-05T11:05:51Z</time>
      </trkpt>
      <trkpt lat="44.02799" lon="5.82677">
        <ele>766.20001220703</ele>
        <time>2019-01-05T11:06:03Z</time>
      </trkpt>
      <trkpt lat="44.02803" lon="5.82676">
        <ele>766</ele>
        <time>2019-01-05T11:06:07Z</time>
      </trkpt>
      <trkpt lat="44.02813" lon="5.82673">
        <ele>765.59997558594</ele>
        <time>2019-01-05T11:06:23Z</time>
      </trkpt>
      <trkpt lat="44.02813" lon="5.82674">
        <ele>765.79998779297</ele>
        <time>2019-01-05T11:06:53Z</time>
      </trkpt>
      <trkpt lat="44.02814" lon="5.82677">
        <ele>765.59997558594</ele>
        <time>2019-01-05T11:07:23Z</time>
      </trkpt>
      <trkpt lat="44.02817" lon="5.82681">
        <ele>765.40002441406</ele>
        <time>2019-01-05T11:07:51Z</time>
      </trkpt>
      <trkpt lat="44.02822" lon="5.82693">
        <ele>764.79998779297</ele>
        <time>2019-01-05T11:08:05Z</time>
      </trkpt>
      <trkpt lat="44.02827" lon="5.82697">
        <ele>764.20001220703</ele>
        <time>2019-01-05T11:08:13Z</time>
      </trkpt>
      <trkpt lat="44.02835" lon="5.82711">
        <ele>763</ele>
        <time>2019-01-05T11:08:27Z</time>
      </trkpt>
      <trkpt lat="44.02842" lon="5.82723">
        <ele>762.20001220703</ele>
        <time>2019-01-05T11:08:41Z</time>
      </trkpt>
      <trkpt lat="44.02845" lon="5.82727">
        <ele>761.20001220703</ele>
        <time>2019-01-05T11:09:06Z</time>
      </trkpt>
      <trkpt lat="44.02849" lon="5.82734">
        <ele>761.20001220703</ele>
        <time>2019-01-05T11:09:31Z</time>
      </trkpt>
      <trkpt lat="44.02859" lon="5.82737">
        <ele>761.79998779297</ele>
        <time>2019-01-05T11:09:47Z</time>
      </trkpt>
      <trkpt lat="44.02865" lon="5.82732">
        <ele>764.59997558594</ele>
        <time>2019-01-05T11:10:06Z</time>
      </trkpt>
      <trkpt lat="44.02866" lon="5.82731">
        <ele>765</ele>
        <time>2019-01-05T11:11:08Z</time>
      </trkpt>
      <trkpt lat="44.02863" lon="5.82713">
        <ele>764.79998779297</ele>
        <time>2019-01-05T11:11:39Z</time>
      </trkpt>
      <trkpt lat="44.02858" lon="5.82683">
        <ele>764.79998779297</ele>
        <time>2019-01-05T11:11:59Z</time>
      </trkpt>
      <trkpt lat="44.02853" lon="5.82652">
        <ele>765.20001220703</ele>
        <time>2019-01-05T11:12:20Z</time>
      </trkpt>
      <trkpt lat="44.02846" lon="5.82619">
        <ele>765.40002441406</ele>
        <time>2019-01-05T11:12:42Z</time>
      </trkpt>
      <trkpt lat="44.02841" lon="5.82595">
        <ele>764.79998779297</ele>
        <time>2019-01-05T11:13:00Z</time>
      </trkpt>
      <trkpt lat="44.02832" lon="5.82562">
        <ele>763.40002441406</ele>
        <time>2019-01-05T11:13:24Z</time>
      </trkpt>
      <trkpt lat="44.0282" lon="5.82536">
        <ele>761.79998779297</ele>
        <time>2019-01-05T11:13:46Z</time>
      </trkpt>
      <trkpt lat="44.02808" lon="5.82517">
        <ele>760</ele>
        <time>2019-01-05T11:14:05Z</time>
      </trkpt>
      <trkpt lat="44.02795" lon="5.82496">
        <ele>758.20001220703</ele>
        <time>2019-01-05T11:14:25Z</time>
      </trkpt>
      <trkpt lat="44.02781" lon="5.82476">
        <ele>756.40002441406</ele>
        <time>2019-01-05T11:14:45Z</time>
      </trkpt>
      <trkpt lat="44.02776" lon="5.82469">
        <ele>756.40002441406</ele>
        <time>2019-01-05T11:14:53Z</time>
      </trkpt>
      <trkpt lat="44.02764" lon="5.82447">
        <ele>755.40002441406</ele>
        <time>2019-01-05T11:15:12Z</time>
      </trkpt>
      <trkpt lat="44.02755" lon="5.82432">
        <ele>754</ele>
        <time>2019-01-05T11:15:26Z</time>
      </trkpt>
      <trkpt lat="44.02744" lon="5.82418">
        <ele>752.40002441406</ele>
        <time>2019-01-05T11:15:42Z</time>
      </trkpt>
      <trkpt lat="44.02741" lon="5.82414">
        <ele>752</ele>
        <time>2019-01-05T11:15:46Z</time>
      </trkpt>
      <trkpt lat="44.02737" lon="5.82408">
        <ele>751.40002441406</ele>
        <time>2019-01-05T11:15:52Z</time>
      </trkpt>
      <trkpt lat="44.02727" lon="5.82393">
        <ele>750</ele>
        <time>2019-01-05T11:16:08Z</time>
      </trkpt>
      <trkpt lat="44.02714" lon="5.82378">
        <ele>748.40002441406</ele>
        <time>2019-01-05T11:16:26Z</time>
      </trkpt>
      <trkpt lat="44.02704" lon="5.82361">
        <ele>747.40002441406</ele>
        <time>2019-01-05T11:16:43Z</time>
      </trkpt>
      <trkpt lat="44.02699" lon="5.8236">
        <ele>747.40002441406</ele>
        <time>2019-01-05T11:17:06Z</time>
      </trkpt>
      <trkpt lat="44.02694" lon="5.82361">
        <ele>748</ele>
        <time>2019-01-05T11:17:29Z</time>
      </trkpt>
      <trkpt lat="44.02698" lon="5.82357">
        <ele>747.59997558594</ele>
        <time>2019-01-05T11:17:58Z</time>
      </trkpt>
      <trkpt lat="44.02696" lon="5.82354">
        <ele>747.59997558594</ele>
        <time>2019-01-05T11:18:37Z</time>
      </trkpt>
      <trkpt lat="44.02701" lon="5.82345">
        <ele>747.20001220703</ele>
        <time>2019-01-05T11:18:52Z</time>
      </trkpt>
      <trkpt lat="44.027" lon="5.82331">
        <ele>747</ele>
        <time>2019-01-05T11:19:23Z</time>
      </trkpt>
      <trkpt lat="44.02698" lon="5.8232">
        <ele>747.20001220703</ele>
        <time>2019-01-05T11:19:39Z</time>
      </trkpt>
      <trkpt lat="44.02695" lon="5.82313">
        <ele>747.20001220703</ele>
        <time>2019-01-05T11:20:07Z</time>
      </trkpt>
      <trkpt lat="44.02692" lon="5.82301">
        <ele>747.40002441406</ele>
        <time>2019-01-05T11:20:22Z</time>
      </trkpt>
      <trkpt lat="44.02692" lon="5.82291">
        <ele>747.59997558594</ele>
        <time>2019-01-05T11:20:42Z</time>
      </trkpt>
      <trkpt lat="44.02698" lon="5.82271">
        <ele>747.40002441406</ele>
        <time>2019-01-05T11:21:01Z</time>
      </trkpt>
      <trkpt lat="44.02701" lon="5.8225">
        <ele>747.20001220703</ele>
        <time>2019-01-05T11:21:19Z</time>
      </trkpt>
      <trkpt lat="44.02704" lon="5.8223">
        <ele>747.40002441406</ele>
        <time>2019-01-05T11:21:38Z</time>
      </trkpt>
      <trkpt lat="44.02706" lon="5.82216">
        <ele>748</ele>
        <time>2019-01-05T11:21:58Z</time>
      </trkpt>
      <trkpt lat="44.02708" lon="5.82203">
        <ele>748.20001220703</ele>
        <time>2019-01-05T11:22:22Z</time>
      </trkpt>
      <trkpt lat="44.02709" lon="5.82188">
        <ele>748.59997558594</ele>
        <time>2019-01-05T11:22:37Z</time>
      </trkpt>
      <trkpt lat="44.02711" lon="5.82169">
        <ele>748.79998779297</ele>
        <time>2019-01-05T11:22:55Z</time>
      </trkpt>
      <trkpt lat="44.02715" lon="5.82166">
        <ele>749.40002441406</ele>
        <time>2019-01-05T11:23:25Z</time>
      </trkpt>
      <trkpt lat="44.02724" lon="5.82162">
        <ele>752</ele>
        <time>2019-01-05T11:23:47Z</time>
      </trkpt>
      <trkpt lat="44.02731" lon="5.82152">
        <ele>753.59997558594</ele>
        <time>2019-01-05T11:24:03Z</time>
      </trkpt>
      <trkpt lat="44.02732" lon="5.82154">
        <ele>753.79998779297</ele>
        <time>2019-01-05T11:24:27Z</time>
      </trkpt>
      <trkpt lat="44.02731" lon="5.82156">
        <ele>753.79998779297</ele>
        <time>2019-01-05T11:26:20Z</time>
      </trkpt>
      <trkpt lat="44.02732" lon="5.82154">
        <ele>754</ele>
        <time>2019-01-05T11:28:15Z</time>
      </trkpt>
      <trkpt lat="44.02731" lon="5.82156">
        <ele>753.79998779297</ele>
        <time>2019-01-05T11:30:38Z</time>
      </trkpt>
      <trkpt lat="44.02731" lon="5.82157">
        <ele>752.59997558594</ele>
        <time>2019-01-05T11:33:21Z</time>
      </trkpt>
      <trkpt lat="44.0273" lon="5.82156">
        <ele>752.59997558594</ele>
        <time>2019-01-05T11:35:45Z</time>
      </trkpt>
      <trkpt lat="44.02729" lon="5.82155">
        <ele>752.20001220703</ele>
        <time>2019-01-05T11:37:19Z</time>
      </trkpt>
      <trkpt lat="44.0273" lon="5.82156">
        <ele>752.40002441406</ele>
        <time>2019-01-05T11:42:41Z</time>
      </trkpt>
      <trkpt lat="44.0273" lon="5.82153">
        <ele>751.79998779297</ele>
        <time>2019-01-05T11:45:26Z</time>
      </trkpt>
      <trkpt lat="44.02731" lon="5.82154">
        <ele>751.79998779297</ele>
        <time>2019-01-05T11:47:11Z</time>
      </trkpt>
      <trkpt lat="44.02731" lon="5.82156">
        <ele>751.59997558594</ele>
        <time>2019-01-05T11:49:26Z</time>
      </trkpt>
      <trkpt lat="44.02731" lon="5.82156">
        <ele>751.20001220703</ele>
        <time>2019-01-05T11:51:08Z</time>
      </trkpt>
      <trkpt lat="44.02732" lon="5.82155">
        <ele>750</ele>
        <time>2019-01-05T11:53:27Z</time>
      </trkpt>
      <trkpt lat="44.02733" lon="5.82156">
        <ele>750</ele>
        <time>2019-01-05T11:55:26Z</time>
      </trkpt>
      <trkpt lat="44.02732" lon="5.82158">
        <ele>751</ele>
        <time>2019-01-05T11:58:26Z</time>
      </trkpt>
      <trkpt lat="44.02731" lon="5.82156">
        <ele>751.59997558594</ele>
        <time>2019-01-05T12:02:22Z</time>
      </trkpt>
      <trkpt lat="44.02733" lon="5.82153">
        <ele>750</ele>
        <time>2019-01-05T12:04:53Z</time>
      </trkpt>
      <trkpt lat="44.02732" lon="5.82155">
        <ele>749.79998779297</ele>
        <time>2019-01-05T12:06:12Z</time>
      </trkpt>
      <trkpt lat="44.02733" lon="5.82154">
        <ele>749.79998779297</ele>
        <time>2019-01-05T12:07:17Z</time>
      </trkpt>
      <trkpt lat="44.0273" lon="5.82155">
        <ele>750.40002441406</ele>
        <time>2019-01-05T12:10:27Z</time>
      </trkpt>
      <trkpt lat="44.0273" lon="5.82154">
        <ele>750.79998779297</ele>
        <time>2019-01-05T12:10:53Z</time>
      </trkpt>
      <trkpt lat="44.02729" lon="5.82155">
        <ele>750.79998779297</ele>
        <time>2019-01-05T12:11:14Z</time>
      </trkpt>
      <trkpt lat="44.02729" lon="5.82154">
        <ele>750.79998779297</ele>
        <time>2019-01-05T12:11:44Z</time>
      </trkpt>
      <trkpt lat="44.02732" lon="5.82145">
        <ele>751</ele>
        <time>2019-01-05T12:11:59Z</time>
      </trkpt>
      <trkpt lat="44.02725" lon="5.82146">
        <ele>750.20001220703</ele>
        <time>2019-01-05T12:12:17Z</time>
      </trkpt>
      <trkpt lat="44.02722" lon="5.8216">
        <ele>750.20001220703</ele>
        <time>2019-01-05T12:12:34Z</time>
      </trkpt>
      <trkpt lat="44.02717" lon="5.82168">
        <ele>749.40002441406</ele>
        <time>2019-01-05T12:13:01Z</time>
      </trkpt>
      <trkpt lat="44.0272" lon="5.82172">
        <ele>749.40002441406</ele>
        <time>2019-01-05T12:13:20Z</time>
      </trkpt>
      <trkpt lat="44.02716" lon="5.82166">
        <ele>748.79998779297</ele>
        <time>2019-01-05T12:13:39Z</time>
      </trkpt>
      <trkpt lat="44.0271" lon="5.82169">
        <ele>746.40002441406</ele>
        <time>2019-01-05T12:13:57Z</time>
      </trkpt>
      <trkpt lat="44.02708" lon="5.82178">
        <ele>745.40002441406</ele>
        <time>2019-01-05T12:14:12Z</time>
      </trkpt>
      <trkpt lat="44.02704" lon="5.82177">
        <ele>743.59997558594</ele>
        <time>2019-01-05T12:14:33Z</time>
      </trkpt>
      <trkpt lat="44.02708" lon="5.82188">
        <ele>744</ele>
        <time>2019-01-05T12:14:50Z</time>
      </trkpt>
      <trkpt lat="44.02706" lon="5.82205">
        <ele>744.40002441406</ele>
        <time>2019-01-05T12:15:06Z</time>
      </trkpt>
      <trkpt lat="44.02703" lon="5.82212">
        <ele>744.20001220703</ele>
        <time>2019-01-05T12:15:12Z</time>
      </trkpt>
      <trkpt lat="44.02702" lon="5.8223">
        <ele>743.20001220703</ele>
        <time>2019-01-05T12:15:30Z</time>
      </trkpt>
      <trkpt lat="44.02699" lon="5.82242">
        <ele>742.59997558594</ele>
        <time>2019-01-05T12:15:46Z</time>
      </trkpt>
      <trkpt lat="44.02697" lon="5.82252">
        <ele>742</ele>
        <time>2019-01-05T12:16:01Z</time>
      </trkpt>
      <trkpt lat="44.02696" lon="5.82262">
        <ele>742</ele>
        <time>2019-01-05T12:16:08Z</time>
      </trkpt>
      <trkpt lat="44.02692" lon="5.82281">
        <ele>742.40002441406</ele>
        <time>2019-01-05T12:16:24Z</time>
      </trkpt>
      <trkpt lat="44.02691" lon="5.82283">
        <ele>742.59997558594</ele>
        <time>2019-01-05T12:16:28Z</time>
      </trkpt>
      <trkpt lat="44.02687" lon="5.82287">
        <ele>742.59997558594</ele>
        <time>2019-01-05T12:16:32Z</time>
      </trkpt>
      <trkpt lat="44.02669" lon="5.8229">
        <ele>742.59997558594</ele>
        <time>2019-01-05T12:16:48Z</time>
      </trkpt>
      <trkpt lat="44.0266" lon="5.8229">
        <ele>742.40002441406</ele>
        <time>2019-01-05T12:16:55Z</time>
      </trkpt>
      <trkpt lat="44.02653" lon="5.8229">
        <ele>742.59997558594</ele>
        <time>2019-01-05T12:17:02Z</time>
      </trkpt>
      <trkpt lat="44.02649" lon="5.8229">
        <ele>742.59997558594</ele>
        <time>2019-01-05T12:17:05Z</time>
      </trkpt>
      <trkpt lat="44.0263" lon="5.82286">
        <ele>743.20001220703</ele>
        <time>2019-01-05T12:17:24Z</time>
      </trkpt>
      <trkpt lat="44.02613" lon="5.82283">
        <ele>745.20001220703</ele>
        <time>2019-01-05T12:17:45Z</time>
      </trkpt>
      <trkpt lat="44.02597" lon="5.82277">
        <ele>746.79998779297</ele>
        <time>2019-01-05T12:18:02Z</time>
      </trkpt>
      <trkpt lat="44.02581" lon="5.82268">
        <ele>747.79998779297</ele>
        <time>2019-01-05T12:18:19Z</time>
      </trkpt>
      <trkpt lat="44.02579" lon="5.82267">
        <ele>747.79998779297</ele>
        <time>2019-01-05T12:18:21Z</time>
      </trkpt>
      <trkpt lat="44.02565" lon="5.82263">
        <ele>747.20001220703</ele>
        <time>2019-01-05T12:18:34Z</time>
      </trkpt>
      <trkpt lat="44.0256" lon="5.82265">
        <ele>747</ele>
        <time>2019-01-05T12:18:42Z</time>
      </trkpt>
      <trkpt lat="44.02544" lon="5.82269">
        <ele>746.20001220703</ele>
        <time>2019-01-05T12:18:55Z</time>
      </trkpt>
      <trkpt lat="44.02541" lon="5.8227">
        <ele>746</ele>
        <time>2019-01-05T12:18:58Z</time>
      </trkpt>
      <trkpt lat="44.02534" lon="5.82276">
        <ele>746</ele>
        <time>2019-01-05T12:19:05Z</time>
      </trkpt>
      <trkpt lat="44.02516" lon="5.82293">
        <ele>747.20001220703</ele>
        <time>2019-01-05T12:19:23Z</time>
      </trkpt>
      <trkpt lat="44.0251" lon="5.82295">
        <ele>747.79998779297</ele>
        <time>2019-01-05T12:19:29Z</time>
      </trkpt>
      <trkpt lat="44.02492" lon="5.82295">
        <ele>748.59997558594</ele>
        <time>2019-01-05T12:19:47Z</time>
      </trkpt>
      <trkpt lat="44.02474" lon="5.82293">
        <ele>749.20001220703</ele>
        <time>2019-01-05T12:20:01Z</time>
      </trkpt>
      <trkpt lat="44.02462" lon="5.82286">
        <ele>748.59997558594</ele>
        <time>2019-01-05T12:20:12Z</time>
      </trkpt>
      <trkpt lat="44.02438" lon="5.8228">
        <ele>748.20001220703</ele>
        <time>2019-01-05T12:20:33Z</time>
      </trkpt>
      <trkpt lat="44.02427" lon="5.82279">
        <ele>748.20001220703</ele>
        <time>2019-01-05T12:20:50Z</time>
      </trkpt>
      <trkpt lat="44.02419" lon="5.82279">
        <ele>748.40002441406</ele>
        <time>2019-01-05T12:21:17Z</time>
      </trkpt>
      <trkpt lat="44.02412" lon="5.82272">
        <ele>748</ele>
        <time>2019-01-05T12:21:24Z</time>
      </trkpt>
      <trkpt lat="44.02389" lon="5.82252">
        <ele>746</ele>
        <time>2019-01-05T12:21:46Z</time>
      </trkpt>
      <trkpt lat="44.02373" lon="5.82237">
        <ele>745</ele>
        <time>2019-01-05T12:22:02Z</time>
      </trkpt>
      <trkpt lat="44.02349" lon="5.82226">
        <ele>744.59997558594</ele>
        <time>2019-01-05T12:22:23Z</time>
      </trkpt>
      <trkpt lat="44.02327" lon="5.82224">
        <ele>744.59997558594</ele>
        <time>2019-01-05T12:22:42Z</time>
      </trkpt>
      <trkpt lat="44.02311" lon="5.82221">
        <ele>745</ele>
        <time>2019-01-05T12:22:56Z</time>
      </trkpt>
      <trkpt lat="44.02289" lon="5.8221">
        <ele>744.59997558594</ele>
        <time>2019-01-05T12:23:15Z</time>
      </trkpt>
      <trkpt lat="44.02267" lon="5.822">
        <ele>743.59997558594</ele>
        <time>2019-01-05T12:23:35Z</time>
      </trkpt>
      <trkpt lat="44.02245" lon="5.82191">
        <ele>742.20001220703</ele>
        <time>2019-01-05T12:23:55Z</time>
      </trkpt>
      <trkpt lat="44.0223" lon="5.82176">
        <ele>741.40002441406</ele>
        <time>2019-01-05T12:24:11Z</time>
      </trkpt>
      <trkpt lat="44.02209" lon="5.82156">
        <ele>740.20001220703</ele>
        <time>2019-01-05T12:24:33Z</time>
      </trkpt>
      <trkpt lat="44.0219" lon="5.82134">
        <ele>739.59997558594</ele>
        <time>2019-01-05T12:24:54Z</time>
      </trkpt>
      <trkpt lat="44.02174" lon="5.82117">
        <ele>739.20001220703</ele>
        <time>2019-01-05T12:25:16Z</time>
      </trkpt>
      <trkpt lat="44.02167" lon="5.82111">
        <ele>739.20001220703</ele>
        <time>2019-01-05T12:25:45Z</time>
      </trkpt>
      <trkpt lat="44.02149" lon="5.82097">
        <ele>739.20001220703</ele>
        <time>2019-01-05T12:26:03Z</time>
      </trkpt>
      <trkpt lat="44.02132" lon="5.82092">
        <ele>739.20001220703</ele>
        <time>2019-01-05T12:26:21Z</time>
      </trkpt>
      <trkpt lat="44.02122" lon="5.82091">
        <ele>739.20001220703</ele>
        <time>2019-01-05T12:26:35Z</time>
      </trkpt>
      <trkpt lat="44.02112" lon="5.82089">
        <ele>739.40002441406</ele>
        <time>2019-01-05T12:26:55Z</time>
      </trkpt>
      <trkpt lat="44.02103" lon="5.82089">
        <ele>739.79998779297</ele>
        <time>2019-01-05T12:27:44Z</time>
      </trkpt>
      <trkpt lat="44.02088" lon="5.8209">
        <ele>739.20001220703</ele>
        <time>2019-01-05T12:28:02Z</time>
      </trkpt>
      <trkpt lat="44.02079" lon="5.82089">
        <ele>738.59997558594</ele>
        <time>2019-01-05T12:28:16Z</time>
      </trkpt>
      <trkpt lat="44.02076" lon="5.8209">
        <ele>738.40002441406</ele>
        <time>2019-01-05T12:28:25Z</time>
      </trkpt>
      <trkpt lat="44.02072" lon="5.8209">
        <ele>738.20001220703</ele>
        <time>2019-01-05T12:28:29Z</time>
      </trkpt>
      <trkpt lat="44.02058" lon="5.82089">
        <ele>738</ele>
        <time>2019-01-05T12:28:43Z</time>
      </trkpt>
      <trkpt lat="44.02038" lon="5.82087">
        <ele>737</ele>
        <time>2019-01-05T12:29:02Z</time>
      </trkpt>
      <trkpt lat="44.02021" lon="5.82088">
        <ele>736</ele>
        <time>2019-01-05T12:29:18Z</time>
      </trkpt>
      <trkpt lat="44.02006" lon="5.82089">
        <ele>735.20001220703</ele>
        <time>2019-01-05T12:29:31Z</time>
      </trkpt>
      <trkpt lat="44.01991" lon="5.82089">
        <ele>734.40002441406</ele>
        <time>2019-01-05T12:29:47Z</time>
      </trkpt>
      <trkpt lat="44.01974" lon="5.8209">
        <ele>733.40002441406</ele>
        <time>2019-01-05T12:30:03Z</time>
      </trkpt>
      <trkpt lat="44.01953" lon="5.82093">
        <ele>732</ele>
        <time>2019-01-05T12:30:23Z</time>
      </trkpt>
      <trkpt lat="44.01934" lon="5.82094">
        <ele>730.79998779297</ele>
        <time>2019-01-05T12:30:42Z</time>
      </trkpt>
      <trkpt lat="44.01916" lon="5.82095">
        <ele>730.20001220703</ele>
        <time>2019-01-05T12:30:58Z</time>
      </trkpt>
      <trkpt lat="44.01898" lon="5.82096">
        <ele>729</ele>
        <time>2019-01-05T12:31:14Z</time>
      </trkpt>
      <trkpt lat="44.01883" lon="5.82098">
        <ele>728</ele>
        <time>2019-01-05T12:31:30Z</time>
      </trkpt>
      <trkpt lat="44.01879" lon="5.82099">
        <ele>727.79998779297</ele>
        <time>2019-01-05T12:31:34Z</time>
      </trkpt>
      <trkpt lat="44.01863" lon="5.82109">
        <ele>726.59997558594</ele>
        <time>2019-01-05T12:31:52Z</time>
      </trkpt>
      <trkpt lat="44.01847" lon="5.82118">
        <ele>725.20001220703</ele>
        <time>2019-01-05T12:32:08Z</time>
      </trkpt>
      <trkpt lat="44.01829" lon="5.8213">
        <ele>724.40002441406</ele>
        <time>2019-01-05T12:32:26Z</time>
      </trkpt>
      <trkpt lat="44.01818" lon="5.82137">
        <ele>723.59997558594</ele>
        <time>2019-01-05T12:32:40Z</time>
      </trkpt>
      <trkpt lat="44.01803" lon="5.82148">
        <ele>723</ele>
        <time>2019-01-05T12:32:57Z</time>
      </trkpt>
      <trkpt lat="44.01784" lon="5.82157">
        <ele>722</ele>
        <time>2019-01-05T12:33:16Z</time>
      </trkpt>
      <trkpt lat="44.0177" lon="5.82167">
        <ele>720.79998779297</ele>
        <time>2019-01-05T12:33:31Z</time>
      </trkpt>
      <trkpt lat="44.01768" lon="5.82169">
        <ele>720.79998779297</ele>
        <time>2019-01-05T12:33:34Z</time>
      </trkpt>
      <trkpt lat="44.01765" lon="5.8217">
        <ele>720.59997558594</ele>
        <time>2019-01-05T12:33:36Z</time>
      </trkpt>
      <trkpt lat="44.01749" lon="5.82177">
        <ele>719.40002441406</ele>
        <time>2019-01-05T12:33:53Z</time>
      </trkpt>
      <trkpt lat="44.01736" lon="5.82186">
        <ele>718</ele>
        <time>2019-01-05T12:34:09Z</time>
      </trkpt>
      <trkpt lat="44.01723" lon="5.82196">
        <ele>717.40002441406</ele>
        <time>2019-01-05T12:34:22Z</time>
      </trkpt>
      <trkpt lat="44.01708" lon="5.82208">
        <ele>716.79998779297</ele>
        <time>2019-01-05T12:34:36Z</time>
      </trkpt>
      <trkpt lat="44.017" lon="5.82212">
        <ele>716.59997558594</ele>
        <time>2019-01-05T12:34:44Z</time>
      </trkpt>
      <trkpt lat="44.01686" lon="5.82222">
        <ele>715.59997558594</ele>
        <time>2019-01-05T12:34:59Z</time>
      </trkpt>
      <trkpt lat="44.0167" lon="5.82232">
        <ele>715</ele>
        <time>2019-01-05T12:35:13Z</time>
      </trkpt>
      <trkpt lat="44.01654" lon="5.82236">
        <ele>713.59997558594</ele>
        <time>2019-01-05T12:35:28Z</time>
      </trkpt>
      <trkpt lat="44.01647" lon="5.82239">
        <ele>713</ele>
        <time>2019-01-05T12:35:36Z</time>
      </trkpt>
      <trkpt lat="44.01644" lon="5.8224">
        <ele>712.79998779297</ele>
        <time>2019-01-05T12:35:38Z</time>
      </trkpt>
      <trkpt lat="44.01626" lon="5.82245">
        <ele>711.40002441406</ele>
        <time>2019-01-05T12:35:52Z</time>
      </trkpt>
      <trkpt lat="44.01608" lon="5.82249">
        <ele>709.59997558594</ele>
        <time>2019-01-05T12:36:09Z</time>
      </trkpt>
      <trkpt lat="44.01602" lon="5.82251">
        <ele>708.59997558594</ele>
        <time>2019-01-05T12:36:16Z</time>
      </trkpt>
      <trkpt lat="44.01594" lon="5.82251">
        <ele>708.40002441406</ele>
        <time>2019-01-05T12:36:22Z</time>
      </trkpt>
      <trkpt lat="44.01587" lon="5.82255">
        <ele>707</ele>
        <time>2019-01-05T12:36:39Z</time>
      </trkpt>
      <trkpt lat="44.0159" lon="5.82258">
        <ele>707</ele>
        <time>2019-01-05T12:36:53Z</time>
      </trkpt>
      <trkpt lat="44.01581" lon="5.82264">
        <ele>705.40002441406</ele>
        <time>2019-01-05T12:37:08Z</time>
      </trkpt>
      <trkpt lat="44.01575" lon="5.82268">
        <ele>704.79998779297</ele>
        <time>2019-01-05T12:37:12Z</time>
      </trkpt>
      <trkpt lat="44.01562" lon="5.82278">
        <ele>702.40002441406</ele>
        <time>2019-01-05T12:37:28Z</time>
      </trkpt>
      <trkpt lat="44.01548" lon="5.82286">
        <ele>701</ele>
        <time>2019-01-05T12:37:43Z</time>
      </trkpt>
      <trkpt lat="44.01536" lon="5.82292">
        <ele>699.79998779297</ele>
        <time>2019-01-05T12:37:56Z</time>
      </trkpt>
      <trkpt lat="44.01525" lon="5.82298">
        <ele>698.40002441406</ele>
        <time>2019-01-05T12:38:09Z</time>
      </trkpt>
      <trkpt lat="44.01513" lon="5.82307">
        <ele>696.40002441406</ele>
        <time>2019-01-05T12:38:24Z</time>
      </trkpt>
      <trkpt lat="44.01508" lon="5.82311">
        <ele>695.79998779297</ele>
        <time>2019-01-05T12:38:31Z</time>
      </trkpt>
      <trkpt lat="44.01505" lon="5.82314">
        <ele>695.40002441406</ele>
        <time>2019-01-05T12:38:34Z</time>
      </trkpt>
      <trkpt lat="44.01493" lon="5.82326">
        <ele>693.59997558594</ele>
        <time>2019-01-05T12:38:53Z</time>
      </trkpt>
      <trkpt lat="44.0148" lon="5.82336">
        <ele>691.59997558594</ele>
        <time>2019-01-05T12:39:11Z</time>
      </trkpt>
      <trkpt lat="44.01469" lon="5.82346">
        <ele>689.79998779297</ele>
        <time>2019-01-05T12:39:26Z</time>
      </trkpt>
      <trkpt lat="44.01457" lon="5.82356">
        <ele>688.20001220703</ele>
        <time>2019-01-05T12:39:41Z</time>
      </trkpt>
      <trkpt lat="44.01445" lon="5.82363">
        <ele>686</ele>
        <time>2019-01-05T12:39:58Z</time>
      </trkpt>
      <trkpt lat="44.01433" lon="5.82374">
        <ele>684.40002441406</ele>
        <time>2019-01-05T12:40:14Z</time>
      </trkpt>
      <trkpt lat="44.01425" lon="5.82385">
        <ele>682.20001220703</ele>
        <time>2019-01-05T12:40:30Z</time>
      </trkpt>
      <trkpt lat="44.01415" lon="5.82396">
        <ele>679.59997558594</ele>
        <time>2019-01-05T12:40:48Z</time>
      </trkpt>
      <trkpt lat="44.01403" lon="5.82402">
        <ele>677.79998779297</ele>
        <time>2019-01-05T12:41:05Z</time>
      </trkpt>
      <trkpt lat="44.01397" lon="5.82414">
        <ele>676.40002441406</ele>
        <time>2019-01-05T12:41:17Z</time>
      </trkpt>
      <trkpt lat="44.01389" lon="5.8243">
        <ele>674.20001220703</ele>
        <time>2019-01-05T12:41:32Z</time>
      </trkpt>
      <trkpt lat="44.01384" lon="5.82442">
        <ele>673</ele>
        <time>2019-01-05T12:41:42Z</time>
      </trkpt>
      <trkpt lat="44.01379" lon="5.82453">
        <ele>672.20001220703</ele>
        <time>2019-01-05T12:41:52Z</time>
      </trkpt>
      <trkpt lat="44.01376" lon="5.8246">
        <ele>671.40002441406</ele>
        <time>2019-01-05T12:41:58Z</time>
      </trkpt>
      <trkpt lat="44.01369" lon="5.82479">
        <ele>670.20001220703</ele>
        <time>2019-01-05T12:42:16Z</time>
      </trkpt>
      <trkpt lat="44.01364" lon="5.8249">
        <ele>668.79998779297</ele>
        <time>2019-01-05T12:42:36Z</time>
      </trkpt>
      <trkpt lat="44.01363" lon="5.82494">
        <ele>668.79998779297</ele>
        <time>2019-01-05T12:42:38Z</time>
      </trkpt>
      <trkpt lat="44.01355" lon="5.82513">
        <ele>668</ele>
        <time>2019-01-05T12:42:54Z</time>
      </trkpt>
      <trkpt lat="44.01343" lon="5.8253">
        <ele>667</ele>
        <time>2019-01-05T12:43:09Z</time>
      </trkpt>
      <trkpt lat="44.0134" lon="5.82533">
        <ele>666.59997558594</ele>
        <time>2019-01-05T12:43:13Z</time>
      </trkpt>
      <trkpt lat="44.01332" lon="5.82548">
        <ele>666</ele>
        <time>2019-01-05T12:43:27Z</time>
      </trkpt>
      <trkpt lat="44.01328" lon="5.82554">
        <ele>665.40002441406</ele>
        <time>2019-01-05T12:43:38Z</time>
      </trkpt>
      <trkpt lat="44.01324" lon="5.82558">
        <ele>664.79998779297</ele>
        <time>2019-01-05T12:43:59Z</time>
      </trkpt>
      <trkpt lat="44.01317" lon="5.82569">
        <ele>664.79998779297</ele>
        <time>2019-01-05T12:44:17Z</time>
      </trkpt>
      <trkpt lat="44.01309" lon="5.8258">
        <ele>664.40002441406</ele>
        <time>2019-01-05T12:44:29Z</time>
      </trkpt>
      <trkpt lat="44.01294" lon="5.82607">
        <ele>664.59997558594</ele>
        <time>2019-01-05T12:44:50Z</time>
      </trkpt>
      <trkpt lat="44.01287" lon="5.82611">
        <ele>664.79998779297</ele>
        <time>2019-01-05T12:44:58Z</time>
      </trkpt>
      <trkpt lat="44.01281" lon="5.82615">
        <ele>665.40002441406</ele>
        <time>2019-01-05T12:45:04Z</time>
      </trkpt>
      <trkpt lat="44.01261" lon="5.82618">
        <ele>667</ele>
        <time>2019-01-05T12:45:21Z</time>
      </trkpt>
      <trkpt lat="44.01246" lon="5.82619">
        <ele>667.40002441406</ele>
        <time>2019-01-05T12:45:35Z</time>
      </trkpt>
      <trkpt lat="44.01244" lon="5.82619">
        <ele>667.40002441406</ele>
        <time>2019-01-05T12:45:37Z</time>
      </trkpt>
      <trkpt lat="44.01227" lon="5.82624">
        <ele>667.40002441406</ele>
        <time>2019-01-05T12:45:52Z</time>
      </trkpt>
      <trkpt lat="44.01211" lon="5.82634">
        <ele>667.79998779297</ele>
        <time>2019-01-05T12:46:07Z</time>
      </trkpt>
      <trkpt lat="44.01198" lon="5.82642">
        <ele>667.79998779297</ele>
        <time>2019-01-05T12:46:20Z</time>
      </trkpt>
      <trkpt lat="44.01184" lon="5.82652">
        <ele>668.20001220703</ele>
        <time>2019-01-05T12:46:34Z</time>
      </trkpt>
      <trkpt lat="44.01165" lon="5.82669">
        <ele>668.40002441406</ele>
        <time>2019-01-05T12:46:52Z</time>
      </trkpt>
      <trkpt lat="44.01162" lon="5.82673">
        <ele>668.20001220703</ele>
        <time>2019-01-05T12:46:56Z</time>
      </trkpt>
      <trkpt lat="44.01146" lon="5.82685">
        <ele>666.40002441406</ele>
        <time>2019-01-05T12:47:14Z</time>
      </trkpt>
      <trkpt lat="44.01131" lon="5.8269">
        <ele>663.59997558594</ele>
        <time>2019-01-05T12:47:31Z</time>
      </trkpt>
      <trkpt lat="44.01127" lon="5.82694">
        <ele>663</ele>
        <time>2019-01-05T12:47:51Z</time>
      </trkpt>
      <trkpt lat="44.01127" lon="5.82696">
        <ele>662.79998779297</ele>
        <time>2019-01-05T12:48:19Z</time>
      </trkpt>
      <trkpt lat="44.01127" lon="5.82691">
        <ele>662.59997558594</ele>
        <time>2019-01-05T12:48:45Z</time>
      </trkpt>
      <trkpt lat="44.01124" lon="5.82683">
        <ele>662.59997558594</ele>
        <time>2019-01-05T12:49:07Z</time>
      </trkpt>
      <trkpt lat="44.01117" lon="5.82675">
        <ele>660.59997558594</ele>
        <time>2019-01-05T12:49:24Z</time>
      </trkpt>
      <trkpt lat="44.0111" lon="5.82664">
        <ele>659.20001220703</ele>
        <time>2019-01-05T12:49:43Z</time>
      </trkpt>
      <trkpt lat="44.01108" lon="5.82666">
        <ele>658.59997558594</ele>
        <time>2019-01-05T12:50:34Z</time>
      </trkpt>
      <trkpt lat="44.01102" lon="5.82671">
        <ele>658.40002441406</ele>
        <time>2019-01-05T12:51:04Z</time>
      </trkpt>
      <trkpt lat="44.01091" lon="5.82686">
        <ele>656</ele>
        <time>2019-01-05T12:51:22Z</time>
      </trkpt>
      <trkpt lat="44.0109" lon="5.82687">
        <ele>655.59997558594</ele>
        <time>2019-01-05T12:51:24Z</time>
      </trkpt>
      <trkpt lat="44.01084" lon="5.82693">
        <ele>654.40002441406</ele>
        <time>2019-01-05T12:51:32Z</time>
      </trkpt>
      <trkpt lat="44.01073" lon="5.827">
        <ele>651.40002441406</ele>
        <time>2019-01-05T12:51:47Z</time>
      </trkpt>
      <trkpt lat="44.01069" lon="5.82704">
        <ele>650</ele>
        <time>2019-01-05T12:52:13Z</time>
      </trkpt>
      <trkpt lat="44.01061" lon="5.82706">
        <ele>649.79998779297</ele>
        <time>2019-01-05T12:52:34Z</time>
      </trkpt>
      <trkpt lat="44.01055" lon="5.82711">
        <ele>648.40002441406</ele>
        <time>2019-01-05T12:52:44Z</time>
      </trkpt>
      <trkpt lat="44.01045" lon="5.82723">
        <ele>646.79998779297</ele>
        <time>2019-01-05T12:52:58Z</time>
      </trkpt>
      <trkpt lat="44.01035" lon="5.82735">
        <ele>645.40002441406</ele>
        <time>2019-01-05T12:53:13Z</time>
      </trkpt>
      <trkpt lat="44.01029" lon="5.82747">
        <ele>644</ele>
        <time>2019-01-05T12:53:25Z</time>
      </trkpt>
      <trkpt lat="44.01022" lon="5.82759">
        <ele>642</ele>
        <time>2019-01-05T12:53:40Z</time>
      </trkpt>
      <trkpt lat="44.01022" lon="5.82764">
        <ele>640.20001220703</ele>
        <time>2019-01-05T12:53:59Z</time>
      </trkpt>
      <trkpt lat="44.01021" lon="5.82766">
        <ele>639.40002441406</ele>
        <time>2019-01-05T12:55:00Z</time>
      </trkpt>
      <trkpt lat="44.01017" lon="5.82775">
        <ele>639</ele>
        <time>2019-01-05T12:55:22Z</time>
      </trkpt>
      <trkpt lat="44.01016" lon="5.82776">
        <ele>639</ele>
        <time>2019-01-05T12:55:23Z</time>
      </trkpt>
      <trkpt lat="44.01011" lon="5.82794">
        <ele>637</ele>
        <time>2019-01-05T12:55:39Z</time>
      </trkpt>
      <trkpt lat="44.01006" lon="5.82807">
        <ele>634.20001220703</ele>
        <time>2019-01-05T12:55:51Z</time>
      </trkpt>
      <trkpt lat="44.01004" lon="5.82813">
        <ele>633.20001220703</ele>
        <time>2019-01-05T12:55:56Z</time>
      </trkpt>
      <trkpt lat="44.01002" lon="5.82818">
        <ele>632.40002441406</ele>
        <time>2019-01-05T12:56:00Z</time>
      </trkpt>
      <trkpt lat="44.00995" lon="5.82828">
        <ele>631</ele>
        <time>2019-01-05T12:56:12Z</time>
      </trkpt>
      <trkpt lat="44.00995" lon="5.8283">
        <ele>630.79998779297</ele>
        <time>2019-01-05T12:56:13Z</time>
      </trkpt>
      <trkpt lat="44.00987" lon="5.82842">
        <ele>628.79998779297</ele>
        <time>2019-01-05T12:56:27Z</time>
      </trkpt>
      <trkpt lat="44.00979" lon="5.82857">
        <ele>625.59997558594</ele>
        <time>2019-01-05T12:56:43Z</time>
      </trkpt>
      <trkpt lat="44.00974" lon="5.82871">
        <ele>622.59997558594</ele>
        <time>2019-01-05T12:56:56Z</time>
      </trkpt>
      <trkpt lat="44.0097" lon="5.82885">
        <ele>620.20001220703</ele>
        <time>2019-01-05T12:57:09Z</time>
      </trkpt>
      <trkpt lat="44.00967" lon="5.82902">
        <ele>617.59997558594</ele>
        <time>2019-01-05T12:57:25Z</time>
      </trkpt>
      <trkpt lat="44.00958" lon="5.82921">
        <ele>614.79998779297</ele>
        <time>2019-01-05T12:57:43Z</time>
      </trkpt>
      <trkpt lat="44.00952" lon="5.82937">
        <ele>611.79998779297</ele>
        <time>2019-01-05T12:57:59Z</time>
      </trkpt>
      <trkpt lat="44.00944" lon="5.82956">
        <ele>609</ele>
        <time>2019-01-05T12:58:18Z</time>
      </trkpt>
      <trkpt lat="44.00938" lon="5.82965">
        <ele>607.20001220703</ele>
        <time>2019-01-05T12:58:29Z</time>
      </trkpt>
      <trkpt lat="44.00928" lon="5.82972">
        <ele>605.79998779297</ele>
        <time>2019-01-05T12:58:44Z</time>
      </trkpt>
      <trkpt lat="44.00923" lon="5.82987">
        <ele>604.79998779297</ele>
        <time>2019-01-05T12:59:01Z</time>
      </trkpt>
      <trkpt lat="44.00916" lon="5.83006">
        <ele>601.59997558594</ele>
        <time>2019-01-05T12:59:22Z</time>
      </trkpt>
      <trkpt lat="44.00908" lon="5.83024">
        <ele>598.59997558594</ele>
        <time>2019-01-05T12:59:41Z</time>
      </trkpt>
      <trkpt lat="44.00906" lon="5.83032">
        <ele>595.79998779297</ele>
        <time>2019-01-05T13:00:03Z</time>
      </trkpt>
      <trkpt lat="44.00901" lon="5.83039">
        <ele>595.79998779297</ele>
        <time>2019-01-05T13:00:22Z</time>
      </trkpt>
      <trkpt lat="44.00892" lon="5.83059">
        <ele>593.59997558594</ele>
        <time>2019-01-05T13:00:41Z</time>
      </trkpt>
      <trkpt lat="44.00884" lon="5.83076">
        <ele>590.59997558594</ele>
        <time>2019-01-05T13:00:58Z</time>
      </trkpt>
      <trkpt lat="44.00893" lon="5.83078">
        <ele>588.40002441406</ele>
        <time>2019-01-05T13:01:13Z</time>
      </trkpt>
      <trkpt lat="44.009" lon="5.83078">
        <ele>587.79998779297</ele>
        <time>2019-01-05T13:01:33Z</time>
      </trkpt>
      <trkpt lat="44.00895" lon="5.83085">
        <ele>587.59997558594</ele>
        <time>2019-01-05T13:02:05Z</time>
      </trkpt>
      <trkpt lat="44.00893" lon="5.83079">
        <ele>587.79998779297</ele>
        <time>2019-01-05T13:02:45Z</time>
      </trkpt>
      <trkpt lat="44.00884" lon="5.83079">
        <ele>587.79998779297</ele>
        <time>2019-01-05T13:03:03Z</time>
      </trkpt>
      <trkpt lat="44.00884" lon="5.83078">
        <ele>589</ele>
        <time>2019-01-05T13:03:35Z</time>
      </trkpt>
      <trkpt lat="44.00887" lon="5.83076">
        <ele>589</ele>
        <time>2019-01-05T13:04:46Z</time>
      </trkpt>
      <trkpt lat="44.00877" lon="5.83087">
        <ele>588.40002441406</ele>
        <time>2019-01-05T13:05:14Z</time>
      </trkpt>
      <trkpt lat="44.00867" lon="5.83098">
        <ele>586.40002441406</ele>
        <time>2019-01-05T13:05:30Z</time>
      </trkpt>
      <trkpt lat="44.00857" lon="5.83109">
        <ele>583.40002441406</ele>
        <time>2019-01-05T13:05:46Z</time>
      </trkpt>
      <trkpt lat="44.00842" lon="5.83118">
        <ele>580.59997558594</ele>
        <time>2019-01-05T13:06:05Z</time>
      </trkpt>
      <trkpt lat="44.00825" lon="5.83125">
        <ele>577.40002441406</ele>
        <time>2019-01-05T13:06:24Z</time>
      </trkpt>
      <trkpt lat="44.00811" lon="5.83126">
        <ele>574.79998779297</ele>
        <time>2019-01-05T13:06:41Z</time>
      </trkpt>
      <trkpt lat="44.00795" lon="5.83123">
        <ele>572.20001220703</ele>
        <time>2019-01-05T13:06:59Z</time>
      </trkpt>
      <trkpt lat="44.00782" lon="5.83127">
        <ele>569.20001220703</ele>
        <time>2019-01-05T13:07:16Z</time>
      </trkpt>
      <trkpt lat="44.00766" lon="5.83134">
        <ele>566.20001220703</ele>
        <time>2019-01-05T13:07:32Z</time>
      </trkpt>
      <trkpt lat="44.00753" lon="5.83141">
        <ele>563</ele>
        <time>2019-01-05T13:07:48Z</time>
      </trkpt>
      <trkpt lat="44.00739" lon="5.83149">
        <ele>560.40002441406</ele>
        <time>2019-01-05T13:08:08Z</time>
      </trkpt>
      <trkpt lat="44.00729" lon="5.83159">
        <ele>557.59997558594</ele>
        <time>2019-01-05T13:08:27Z</time>
      </trkpt>
      <trkpt lat="44.00718" lon="5.83167">
        <ele>555.20001220703</ele>
        <time>2019-01-05T13:08:45Z</time>
      </trkpt>
      <trkpt lat="44.00704" lon="5.83177">
        <ele>552.20001220703</ele>
        <time>2019-01-05T13:09:08Z</time>
      </trkpt>
      <trkpt lat="44.00691" lon="5.83189">
        <ele>549.59997558594</ele>
        <time>2019-01-05T13:09:26Z</time>
      </trkpt>
      <trkpt lat="44.00683" lon="5.832">
        <ele>547.79998779297</ele>
        <time>2019-01-05T13:09:41Z</time>
      </trkpt>
      <trkpt lat="44.00671" lon="5.83204">
        <ele>545.79998779297</ele>
        <time>2019-01-05T13:09:58Z</time>
      </trkpt>
      <trkpt lat="44.00656" lon="5.83211">
        <ele>543.59997558594</ele>
        <time>2019-01-05T13:10:18Z</time>
      </trkpt>
      <trkpt lat="44.00641" lon="5.83223">
        <ele>540.40002441406</ele>
        <time>2019-01-05T13:10:41Z</time>
      </trkpt>
      <trkpt lat="44.00632" lon="5.83243">
        <ele>537.59997558594</ele>
        <time>2019-01-05T13:11:02Z</time>
      </trkpt>
      <trkpt lat="44.00625" lon="5.8327">
        <ele>536.20001220703</ele>
        <time>2019-01-05T13:11:26Z</time>
      </trkpt>
      <trkpt lat="44.00617" lon="5.83282">
        <ele>535.20001220703</ele>
        <time>2019-01-05T13:11:46Z</time>
      </trkpt>
      <trkpt lat="44.00616" lon="5.83297">
        <ele>535.79998779297</ele>
        <time>2019-01-05T13:12:07Z</time>
      </trkpt>
      <trkpt lat="44.00617" lon="5.83316">
        <ele>535.40002441406</ele>
        <time>2019-01-05T13:12:27Z</time>
      </trkpt>
      <trkpt lat="44.00618" lon="5.8334">
        <ele>534.59997558594</ele>
        <time>2019-01-05T13:12:48Z</time>
      </trkpt>
      <trkpt lat="44.00618" lon="5.83366">
        <ele>533.79998779297</ele>
        <time>2019-01-05T13:13:08Z</time>
      </trkpt>
      <trkpt lat="44.00621" lon="5.83387">
        <ele>533</ele>
        <time>2019-01-05T13:13:24Z</time>
      </trkpt>
      <trkpt lat="44.00614" lon="5.83411">
        <ele>532.20001220703</ele>
        <time>2019-01-05T13:13:45Z</time>
      </trkpt>
      <trkpt lat="44.00603" lon="5.8344">
        <ele>531.79998779297</ele>
        <time>2019-01-05T13:14:07Z</time>
      </trkpt>
      <trkpt lat="44.00591" lon="5.83461">
        <ele>530.40002441406</ele>
        <time>2019-01-05T13:14:27Z</time>
      </trkpt>
      <trkpt lat="44.00584" lon="5.83478">
        <ele>527.40002441406</ele>
        <time>2019-01-05T13:14:45Z</time>
      </trkpt>
      <trkpt lat="44.00584" lon="5.83504">
        <ele>525.79998779297</ele>
        <time>2019-01-05T13:15:04Z</time>
      </trkpt>
      <trkpt lat="44.0059" lon="5.83521">
        <ele>525.20001220703</ele>
        <time>2019-01-05T13:15:17Z</time>
      </trkpt>
      <trkpt lat="44.00597" lon="5.83549">
        <ele>525.40002441406</ele>
        <time>2019-01-05T13:15:42Z</time>
      </trkpt>
      <trkpt lat="44.00599" lon="5.83578">
        <ele>524.20001220703</ele>
        <time>2019-01-05T13:16:03Z</time>
      </trkpt>
      <trkpt lat="44.00603" lon="5.8361">
        <ele>521.40002441406</ele>
        <time>2019-01-05T13:16:27Z</time>
      </trkpt>
      <trkpt lat="44.00601" lon="5.83645">
        <ele>519.59997558594</ele>
        <time>2019-01-05T13:16:51Z</time>
      </trkpt>
      <trkpt lat="44.00597" lon="5.83677">
        <ele>519.20001220703</ele>
        <time>2019-01-05T13:17:14Z</time>
      </trkpt>
      <trkpt lat="44.00591" lon="5.83707">
        <ele>518.40002441406</ele>
        <time>2019-01-05T13:17:36Z</time>
      </trkpt>
      <trkpt lat="44.00589" lon="5.83737">
        <ele>517</ele>
        <time>2019-01-05T13:17:56Z</time>
      </trkpt>
      <trkpt lat="44.00582" lon="5.83758">
        <ele>516.79998779297</ele>
        <time>2019-01-05T13:18:15Z</time>
      </trkpt>
      <trkpt lat="44.00573" lon="5.83767">
        <ele>513.79998779297</ele>
        <time>2019-01-05T13:18:36Z</time>
      </trkpt>
      <trkpt lat="44.00561" lon="5.83783">
        <ele>515</ele>
        <time>2019-01-05T13:18:58Z</time>
      </trkpt>
      <trkpt lat="44.00551" lon="5.838">
        <ele>518</ele>
        <time>2019-01-05T13:19:16Z</time>
      </trkpt>
      <trkpt lat="44.00534" lon="5.83813">
        <ele>520.59997558594</ele>
        <time>2019-01-05T13:19:38Z</time>
      </trkpt>
      <trkpt lat="44.00522" lon="5.83824">
        <ele>519.40002441406</ele>
        <time>2019-01-05T13:19:57Z</time>
      </trkpt>
      <trkpt lat="44.00508" lon="5.8384">
        <ele>516.59997558594</ele>
        <time>2019-01-05T13:20:17Z</time>
      </trkpt>
      <trkpt lat="44.00496" lon="5.83857">
        <ele>515.40002441406</ele>
        <time>2019-01-05T13:20:35Z</time>
      </trkpt>
      <trkpt lat="44.00483" lon="5.83869">
        <ele>514.20001220703</ele>
        <time>2019-01-05T13:20:54Z</time>
      </trkpt>
      <trkpt lat="44.00466" lon="5.83881">
        <ele>513</ele>
        <time>2019-01-05T13:21:11Z</time>
      </trkpt>
      <trkpt lat="44.00461" lon="5.83884">
        <ele>512.40002441406</ele>
        <time>2019-01-05T13:21:17Z</time>
      </trkpt>
      <trkpt lat="44.00447" lon="5.83892">
        <ele>511</ele>
        <time>2019-01-05T13:21:34Z</time>
      </trkpt>
      <trkpt lat="44.00428" lon="5.83894">
        <ele>508</ele>
        <time>2019-01-05T13:21:55Z</time>
      </trkpt>
      <trkpt lat="44.0041" lon="5.83892">
        <ele>506.60000610352</ele>
        <time>2019-01-05T13:22:14Z</time>
      </trkpt>
      <trkpt lat="44.00408" lon="5.83892">
        <ele>506.60000610352</ele>
        <time>2019-01-05T13:22:16Z</time>
      </trkpt>
      <trkpt lat="44.00388" lon="5.83887">
        <ele>506</ele>
        <time>2019-01-05T13:22:35Z</time>
      </trkpt>
      <trkpt lat="44.00367" lon="5.83881">
        <ele>505</ele>
        <time>2019-01-05T13:22:54Z</time>
      </trkpt>
      <trkpt lat="44.00356" lon="5.83879">
        <ele>504</ele>
        <time>2019-01-05T13:23:10Z</time>
      </trkpt>
      <trkpt lat="44.00343" lon="5.83874">
        <ele>503.20001220703</ele>
        <time>2019-01-05T13:23:27Z</time>
      </trkpt>
      <trkpt lat="44.00334" lon="5.83873">
        <ele>504</ele>
        <time>2019-01-05T13:23:40Z</time>
      </trkpt>
      <trkpt lat="44.00314" lon="5.83868">
        <ele>506.79998779297</ele>
        <time>2019-01-05T13:24:01Z</time>
      </trkpt>
      <trkpt lat="44.00309" lon="5.83866">
        <ele>507.20001220703</ele>
        <time>2019-01-05T13:24:05Z</time>
      </trkpt>
      <trkpt lat="44.00293" lon="5.83868">
        <ele>508.39999389648</ele>
        <time>2019-01-05T13:24:25Z</time>
      </trkpt>
      <trkpt lat="44.00278" lon="5.83879">
        <ele>509.20001220703</ele>
        <time>2019-01-05T13:24:45Z</time>
      </trkpt>
      <trkpt lat="44.00266" lon="5.83889">
        <ele>510</ele>
        <time>2019-01-05T13:24:59Z</time>
      </trkpt>
      <trkpt lat="44.00263" lon="5.83894">
        <ele>510</ele>
        <time>2019-01-05T13:25:04Z</time>
      </trkpt>
      <trkpt lat="44.00252" lon="5.83914">
        <ele>509.60000610352</ele>
        <time>2019-01-05T13:25:21Z</time>
      </trkpt>
      <trkpt lat="44.00242" lon="5.83927">
        <ele>508.39999389648</ele>
        <time>2019-01-05T13:25:35Z</time>
      </trkpt>
      <trkpt lat="44.00227" lon="5.83952">
        <ele>506.39999389648</ele>
        <time>2019-01-05T13:25:58Z</time>
      </trkpt>
      <trkpt lat="44.00219" lon="5.83972">
        <ele>506.20001220703</ele>
        <time>2019-01-05T13:26:13Z</time>
      </trkpt>
      <trkpt lat="44.0021" lon="5.83986">
        <ele>506.60000610352</ele>
        <time>2019-01-05T13:26:28Z</time>
      </trkpt>
      <trkpt lat="44.00203" lon="5.84002">
        <ele>507</ele>
        <time>2019-01-05T13:26:41Z</time>
      </trkpt>
      <trkpt lat="44.002" lon="5.84006">
        <ele>507</ele>
        <time>2019-01-05T13:26:45Z</time>
      </trkpt>
      <trkpt lat="44.00194" lon="5.84017">
        <ele>507.39999389648</ele>
        <time>2019-01-05T13:27:00Z</time>
      </trkpt>
      <trkpt lat="44.00195" lon="5.84021">
        <ele>507.60000610352</ele>
        <time>2019-01-05T13:27:26Z</time>
      </trkpt>
      <trkpt lat="44.00194" lon="5.84024">
        <ele>507.20001220703</ele>
        <time>2019-01-05T13:28:28Z</time>
      </trkpt>
      <trkpt lat="44.00192" lon="5.84025">
        <ele>507.60000610352</ele>
        <time>2019-01-05T13:29:14Z</time>
      </trkpt>
      <trkpt lat="44.00181" lon="5.84027">
        <ele>506.79998779297</ele>
        <time>2019-01-05T13:29:37Z</time>
      </trkpt>
      <trkpt lat="44.00177" lon="5.84028">
        <ele>506.39999389648</ele>
        <time>2019-01-05T13:29:43Z</time>
      </trkpt>
      <trkpt lat="44.00164" lon="5.84033">
        <ele>505.60000610352</ele>
        <time>2019-01-05T13:29:57Z</time>
      </trkpt>
      <trkpt lat="44.00158" lon="5.84035">
        <ele>505.20001220703</ele>
        <time>2019-01-05T13:30:04Z</time>
      </trkpt>
      <trkpt lat="44.00156" lon="5.84035">
        <ele>505.20001220703</ele>
        <time>2019-01-05T13:30:06Z</time>
      </trkpt>
      <trkpt lat="44.00143" lon="5.8404">
        <ele>504.60000610352</ele>
        <time>2019-01-05T13:30:19Z</time>
      </trkpt>
      <trkpt lat="44.00129" lon="5.84043">
        <ele>504</ele>
        <time>2019-01-05T13:30:32Z</time>
      </trkpt>
      <trkpt lat="44.00115" lon="5.84046">
        <ele>503.20001220703</ele>
        <time>2019-01-05T13:30:46Z</time>
      </trkpt>
      <trkpt lat="44.00112" lon="5.84045">
        <ele>503.20001220703</ele>
        <time>2019-01-05T13:30:48Z</time>
      </trkpt>
      <trkpt lat="44.00098" lon="5.84045">
        <ele>502.60000610352</ele>
        <time>2019-01-05T13:31:02Z</time>
      </trkpt>
      <trkpt lat="44.00092" lon="5.84045">
        <ele>502.20001220703</ele>
        <time>2019-01-05T13:31:07Z</time>
      </trkpt>
      <trkpt lat="44.0009" lon="5.84046">
        <ele>502.20001220703</ele>
        <time>2019-01-05T13:31:09Z</time>
      </trkpt>
      <trkpt lat="44.00073" lon="5.84046">
        <ele>501.39999389648</ele>
        <time>2019-01-05T13:31:25Z</time>
      </trkpt>
      <trkpt lat="44.00059" lon="5.84047">
        <ele>500.79998779297</ele>
        <time>2019-01-05T13:31:40Z</time>
      </trkpt>
      <trkpt lat="44.00057" lon="5.84047">
        <ele>500.60000610352</ele>
        <time>2019-01-05T13:31:42Z</time>
      </trkpt>
      <trkpt lat="44.00043" lon="5.84047">
        <ele>500</ele>
        <time>2019-01-05T13:31:55Z</time>
      </trkpt>
      <trkpt lat="44.00023" lon="5.84047">
        <ele>499.39999389648</ele>
        <time>2019-01-05T13:32:13Z</time>
      </trkpt>
      <trkpt lat="44.00007" lon="5.8405">
        <ele>499</ele>
        <time>2019-01-05T13:32:28Z</time>
      </trkpt>
      <trkpt lat="43.9999" lon="5.84055">
        <ele>498.60000610352</ele>
        <time>2019-01-05T13:32:46Z</time>
      </trkpt>
      <trkpt lat="43.99972" lon="5.84062">
        <ele>497.60000610352</ele>
        <time>2019-01-05T13:33:07Z</time>
      </trkpt>
      <trkpt lat="43.99968" lon="5.84066">
        <ele>496.79998779297</ele>
        <time>2019-01-05T13:33:32Z</time>
      </trkpt>
      <trkpt lat="43.99963" lon="5.84068">
        <ele>496.20001220703</ele>
        <time>2019-01-05T13:33:53Z</time>
      </trkpt>
      <trkpt lat="43.99955" lon="5.84069">
        <ele>496</ele>
        <time>2019-01-05T13:34:12Z</time>
      </trkpt>
      <trkpt lat="43.99935" lon="5.84074">
        <ele>494.20001220703</ele>
        <time>2019-01-05T13:34:33Z</time>
      </trkpt>
      <trkpt lat="43.99916" lon="5.84071">
        <ele>493.20001220703</ele>
        <time>2019-01-05T13:34:51Z</time>
      </trkpt>
      <trkpt lat="43.99913" lon="5.8407">
        <ele>493</ele>
        <time>2019-01-05T13:34:54Z</time>
      </trkpt>
      <trkpt lat="43.99896" lon="5.84068">
        <ele>492.20001220703</ele>
        <time>2019-01-05T13:35:09Z</time>
      </trkpt>
      <trkpt lat="43.99885" lon="5.84064">
        <ele>492</ele>
        <time>2019-01-05T13:35:19Z</time>
      </trkpt>
      <trkpt lat="43.99865" lon="5.8406">
        <ele>491.20001220703</ele>
        <time>2019-01-05T13:35:37Z</time>
      </trkpt>
      <trkpt lat="43.99844" lon="5.84058">
        <ele>490.39999389648</ele>
        <time>2019-01-05T13:35:56Z</time>
      </trkpt>
      <trkpt lat="43.99827" lon="5.8406">
        <ele>489.79998779297</ele>
        <time>2019-01-05T13:36:11Z</time>
      </trkpt>
      <trkpt lat="43.99813" lon="5.84061">
        <ele>488.79998779297</ele>
        <time>2019-01-05T13:36:29Z</time>
      </trkpt>
      <trkpt lat="43.99809" lon="5.84048">
        <ele>488.60000610352</ele>
        <time>2019-01-05T13:36:47Z</time>
      </trkpt>
      <trkpt lat="43.99812" lon="5.84028">
        <ele>488.39999389648</ele>
        <time>2019-01-05T13:37:00Z</time>
      </trkpt>
      <trkpt lat="43.99814" lon="5.84012">
        <ele>487.79998779297</ele>
        <time>2019-01-05T13:37:12Z</time>
      </trkpt>
      <trkpt lat="43.99816" lon="5.84005">
        <ele>487.60000610352</ele>
        <time>2019-01-05T13:37:17Z</time>
      </trkpt>
      <trkpt lat="43.9982" lon="5.83993">
        <ele>486.79998779297</ele>
        <time>2019-01-05T13:37:26Z</time>
      </trkpt>
      <trkpt lat="43.99831" lon="5.83971">
        <ele>485.20001220703</ele>
        <time>2019-01-05T13:37:45Z</time>
      </trkpt>
      <trkpt lat="43.99833" lon="5.83954">
        <ele>484.39999389648</ele>
        <time>2019-01-05T13:37:56Z</time>
      </trkpt>
      <trkpt lat="43.99835" lon="5.83939">
        <ele>483.39999389648</ele>
        <time>2019-01-05T13:38:07Z</time>
      </trkpt>
      <trkpt lat="43.99837" lon="5.83916">
        <ele>482.79998779297</ele>
        <time>2019-01-05T13:38:24Z</time>
      </trkpt>
      <trkpt lat="43.99844" lon="5.83891">
        <ele>482.20001220703</ele>
        <time>2019-01-05T13:38:43Z</time>
      </trkpt>
      <trkpt lat="43.99849" lon="5.83873">
        <ele>482.20001220703</ele>
        <time>2019-01-05T13:39:01Z</time>
      </trkpt>
      <trkpt lat="43.99849" lon="5.83846">
        <ele>482</ele>
        <time>2019-01-05T13:39:21Z</time>
      </trkpt>
      <trkpt lat="43.99849" lon="5.83837">
        <ele>482</ele>
        <time>2019-01-05T13:39:29Z</time>
      </trkpt>
      <trkpt lat="43.99848" lon="5.83826">
        <ele>482</ele>
        <time>2019-01-05T13:39:38Z</time>
      </trkpt>
      <trkpt lat="43.99844" lon="5.83815">
        <ele>482</ele>
        <time>2019-01-05T13:39:48Z</time>
      </trkpt>
      <trkpt lat="43.99839" lon="5.83806">
        <ele>482.20001220703</ele>
        <time>2019-01-05T13:40:04Z</time>
      </trkpt>
      <trkpt lat="43.9984" lon="5.83806">
        <ele>482.20001220703</ele>
        <time>2019-01-05T13:40:36Z</time>
      </trkpt>
      <trkpt lat="43.99839" lon="5.83807">
        <ele>482.20001220703</ele>
        <time>2019-01-05T13:41:20Z</time>
      </trkpt>
      <trkpt lat="43.9984" lon="5.83807">
        <ele>482.20001220703</ele>
        <time>2019-01-05T13:41:59Z</time>
      </trkpt>
      <trkpt lat="43.99842" lon="5.83807">
        <ele>482.60000610352</ele>
        <time>2019-01-05T13:42:58Z</time>
      </trkpt>
      <trkpt lat="43.9984" lon="5.83808">
        <ele>482.79998779297</ele>
        <time>2019-01-05T13:43:48Z</time>
      </trkpt>
      <trkpt lat="43.99842" lon="5.83806">
        <ele>482.79998779297</ele>
        <time>2019-01-05T13:44:14Z</time>
      </trkpt>
      <trkpt lat="43.99843" lon="5.83803">
        <ele>483.20001220703</ele>
        <time>2019-01-05T13:44:35Z</time>
      </trkpt>
      <trkpt lat="43.99845" lon="5.83805">
        <ele>483.20001220703</ele>
        <time>2019-01-05T13:44:49Z</time>
      </trkpt>
      <trkpt lat="43.99845" lon="5.83802">
        <ele>483.20001220703</ele>
        <time>2019-01-05T13:45:10Z</time>
      </trkpt>
      <trkpt lat="43.99843" lon="5.83803">
        <ele>483.39999389648</ele>
        <time>2019-01-05T13:45:27Z</time>
      </trkpt>
      <trkpt lat="43.99844" lon="5.83805">
        <ele>483.60000610352</ele>
        <time>2019-01-05T13:45:53Z</time>
      </trkpt>
      <trkpt lat="43.99845" lon="5.83805">
        <ele>484</ele>
        <time>2019-01-05T13:46:29Z</time>
      </trkpt>
      <trkpt lat="43.99843" lon="5.83809">
        <ele>484</ele>
        <time>2019-01-05T13:48:08Z</time>
      </trkpt>
      <trkpt lat="43.99841" lon="5.83808">
        <ele>484</ele>
        <time>2019-01-05T13:48:43Z</time>
      </trkpt>
      <trkpt lat="43.99842" lon="5.83809">
        <ele>483.79998779297</ele>
        <time>2019-01-05T13:50:37Z</time>
      </trkpt>
      <trkpt lat="43.99842" lon="5.83807">
        <ele>484.60000610352</ele>
        <time>2019-01-05T13:52:09Z</time>
      </trkpt>
      <trkpt lat="43.99845" lon="5.83812">
        <ele>485.20001220703</ele>
        <time>2019-01-05T13:52:42Z</time>
      </trkpt>
      <trkpt lat="43.99848" lon="5.83841">
        <ele>485</ele>
        <time>2019-01-05T13:53:01Z</time>
      </trkpt>
      <trkpt lat="43.99845" lon="5.83872">
        <ele>485</ele>
        <time>2019-01-05T13:53:20Z</time>
      </trkpt>
      <trkpt lat="43.99837" lon="5.83901">
        <ele>485</ele>
        <time>2019-01-05T13:53:39Z</time>
      </trkpt>
      <trkpt lat="43.99824" lon="5.83925">
        <ele>485.39999389648</ele>
        <time>2019-01-05T13:53:58Z</time>
      </trkpt>
      <trkpt lat="43.99809" lon="5.83946">
        <ele>485.79998779297</ele>
        <time>2019-01-05T13:54:16Z</time>
      </trkpt>
      <trkpt lat="43.99796" lon="5.83964">
        <ele>486.39999389648</ele>
        <time>2019-01-05T13:54:34Z</time>
      </trkpt>
      <trkpt lat="43.99783" lon="5.83974">
        <ele>486.79998779297</ele>
        <time>2019-01-05T13:54:47Z</time>
      </trkpt>
      <trkpt lat="43.99775" lon="5.83973">
        <ele>487.39999389648</ele>
        <time>2019-01-05T13:55:08Z</time>
      </trkpt>
      <trkpt lat="43.99771" lon="5.83972">
        <ele>467.39999389648</ele>
        <time>2019-01-05T13:55:16Z</time>
      </trkpt>
    </trkseg>
  </trk>
</gpx>